Observation data for Palo Duro Canyon State Park Rim on 06/25/2019      Previous  Date  Next       Current Mesonet Observations  Soil Data  Daily Summary Page  Observations in Plain Language
KPD1 250500Z 15014KT 23/15 A2999 RMK A01 T02320149  RH  060%=      5-min Rain = 0
KPD1 250501Z 15012KT 23/15 A2999 RMK A01 T02320149  RH  060%=      5-min Rain = 0
KPD1 250502Z 15013KT 23/15 A30 RMK A01 T02320149  RH  060%=      5-min Rain = 0
KPD1 250503Z 14012G17KT 23/15 A30 RMK A01 T02320150  RH  060%=      5-min Rain = 0
KPD1 250504Z 15013KT 23/15 A2999 RMK A01 T02320150  RH  060%=      5-min Rain = 0
KPD1 250505Z 15011KT 23/15 A2999 RMK A01 T02320150  RH  060%=      5-min Rain = 0
KPD1 250506Z 15014KT 23/15 A2999 RMK A01 T02310150  RH  060%=      5-min Rain = 0
KPD1 250507Z 15012KT 23/15 A2999 RMK A01 T02310150  RH  060%=      5-min Rain = 0
KPD1 250508Z 15011KT 23/15 A2999 RMK A01 T02310150  RH  060%=      5-min Rain = 0
KPD1 250509Z 15012KT 23/15 A2999 RMK A01 T02310150  RH  060%=      5-min Rain = 0
KPD1 250510Z 14009G14KT 23/15 A30 RMK A01 T02310150  RH  060%=      5-min Rain = 0
KPD1 250511Z 15012G18KT 23/15 A2999 RMK A01 T02310150  RH  061%=      5-min Rain = 0
KPD1 250512Z 15014KT 23/15 A30 RMK A01 T02300150  RH  061%=      5-min Rain = 0
KPD1 250513Z 14011KT 23/15 A30 RMK A01 T02300150  RH  061%=      5-min Rain = 0
KPD1 250514Z 15009KT 23/15 A30 RMK A01 T02300150  RH  061%=      5-min Rain = 0
KPD1 250515Z 14010G15KT 23/15 A2999 RMK A01 T02300150  RH  061%=      5-min Rain = 0
KPD1 250516Z 14011KT 23/15 A2999 RMK A01 T02290150  RH  061%=      5-min Rain = 0
KPD1 250517Z 15010KT 23/15 A30 RMK A01 T02290150  RH  061%=      5-min Rain = 0
KPD1 250518Z 16011KT 23/15 A30 RMK A01 T02290150  RH  061%=      5-min Rain = 0
KPD1 250519Z 15011G16KT 23/15 A30 RMK A01 T02290151  RH  061%=      5-min Rain = 0
KPD1 250520Z 15010KT 23/15 A30 RMK A01 T02290151  RH  061%=      5-min Rain = 0
KPD1 250521Z 15011KT 23/15 A2999 RMK A01 T02290151  RH  061%=      5-min Rain = 0
KPD1 250522Z 13012KT 23/15 A2999 RMK A01 T02280151  RH  062%=      5-min Rain = 0
KPD1 250523Z 15014KT 23/15 A2999 RMK A01 T02280151  RH  062%=      5-min Rain = 0
KPD1 250524Z 15010KT 23/15 A2999 RMK A01 T02280151  RH  062%=      5-min Rain = 0
KPD1 250525Z 15011G17KT 23/15 A2999 RMK A01 T02280151  RH  062%=      5-min Rain = 0
KPD1 250526Z 15010KT 23/15 A2999 RMK A01 T02280151  RH  062%=      5-min Rain = 0
KPD1 250527Z 15011KT 23/15 A2999 RMK A01 T02280151  RH  062%=      5-min Rain = 0
KPD1 250528Z 14013KT 23/15 A2999 RMK A01 T02280151  RH  062%=      5-min Rain = 0
KPD1 250529Z 15011KT 23/15 A2999 RMK A01 T02280151  RH  062%=      5-min Rain = 0
KPD1 250530Z 15010KT 23/15 A2999 RMK A01 T02280151  RH  062%=      5-min Rain = 0
KPD1 250531Z 14011KT 23/15 A2999 RMK A01 T02270151  RH  062%=      5-min Rain = 0
KPD1 250532Z 15012KT 23/15 A2999 RMK A01 T02270151  RH  062%=      5-min Rain = 0
KPD1 250533Z 15013KT 23/15 A30 RMK A01 T02270151  RH  062%=      5-min Rain = 0
KPD1 250534Z 15012KT 23/15 A30 RMK A01 T02270151  RH  062%=      5-min Rain = 0
KPD1 250535Z 15012KT 23/15 A30 RMK A01 T02270151  RH  062%=      5-min Rain = 0
KPD1 250536Z 15012KT 23/15 A30 RMK A01 T02270151  RH  062%=      5-min Rain = 0
KPD1 250537Z 15010KT 23/15 A30 RMK A01 T02260151  RH  062%=      5-min Rain = 0
KPD1 250538Z 15011KT 23/15 A30 RMK A01 T02260151  RH  062%=      5-min Rain = 0
KPD1 250539Z 15009G14KT 23/15 A30 RMK A01 T02250151  RH  063%=      5-min Rain = 0
KPD1 250540Z 15010KT 23/15 A30 RMK A01 T02250151  RH  063%=      5-min Rain = 0
KPD1 250541Z 15010KT 23/15 A30 RMK A01 T02250151  RH  063%=      5-min Rain = 0
KPD1 250542Z 15010KT 23/15 A30 RMK A01 T02250151  RH  063%=      5-min Rain = 0
KPD1 250543Z 15008KT 23/15 A30 RMK A01 T02250151  RH  063%=      5-min Rain = 0
KPD1 250544Z 15009KT 22/15 A30 RMK A01 T02240151  RH  063%=      5-min Rain = 0
KPD1 250545Z 15009KT 22/15 A30 RMK A01 T02240151  RH  063%=      5-min Rain = 0
KPD1 250546Z 14009KT 22/15 A30 RMK A01 T02240151  RH  063%=      5-min Rain = 0
KPD1 250547Z 15008KT 22/15 A2999 RMK A01 T02230151  RH  064%=      5-min Rain = 0
KPD1 250548Z 15011KT 22/15 A2999 RMK A01 T02230151  RH  064%=      5-min Rain = 0
KPD1 250549Z 15010KT 22/15 A2999 RMK A01 T02230151  RH  064%=      5-min Rain = 0
KPD1 250550Z 15010KT 22/15 A2999 RMK A01 T02220151  RH  064%=      5-min Rain = 0
KPD1 250551Z 15010KT 22/15 A2999 RMK A01 T02230151  RH  064%=      5-min Rain = 0
KPD1 250552Z 15011KT 22/15 A2999 RMK A01 T02230151  RH  064%=      5-min Rain = 0
KPD1 250553Z 15009KT 22/15 A2999 RMK A01 T02220151  RH  064%=      5-min Rain = 0
KPD1 250554Z 16008KT 22/15 A2999 RMK A01 T02220151  RH  064%=      5-min Rain = 0
KPD1 250555Z 16009KT 22/15 A2999 RMK A01 T02220151  RH  064%=      5-min Rain = 0
KPD1 250556Z 15008KT 22/15 A2999 RMK A01 T02210151  RH  064%=      5-min Rain = 0
KPD1 250557Z 14007KT 22/15 A2999 RMK A01 T02210151  RH  064%=      5-min Rain = 0
KPD1 250558Z 15006KT 22/15 A2999 RMK A01 T02210151  RH  064%=      5-min Rain = 0
KPD1 250559Z 15009KT 22/15 A30 RMK A01 T02210151  RH  065%=      5-min Rain = 0
KPD1 250600Z 15008KT 22/15 A30 RMK A01 T02200151  RH  065%=      5-min Rain = 0
KPD1 250601Z 15008KT 22/15 A2999 RMK A01 T02200151  RH  065%=      5-min Rain = 0
KPD1 250602Z 15008KT 22/15 A2999 RMK A01 T02200151  RH  065%=      5-min Rain = 0
KPD1 250603Z 15009KT 22/15 A2999 RMK A01 T02200150  RH  065%=      5-min Rain = 0
KPD1 250604Z 15009KT 22/15 A2999 RMK A01 T02200151  RH  065%=      5-min Rain = 0
KPD1 250605Z 15008KT 22/15 A2999 RMK A01 T02200150  RH  065%=      5-min Rain = 0
KPD1 250606Z 15010KT 22/15 A2999 RMK A01 T02200151  RH  065%=      5-min Rain = 0
KPD1 250607Z 15009KT 22/15 A2999 RMK A01 T02200150  RH  065%=      5-min Rain = 0
KPD1 250608Z 15008G13KT 22/15 A2999 RMK A01 T02200151  RH  065%=      5-min Rain = 0
KPD1 250609Z 15009KT 22/15 A2999 RMK A01 T02200151  RH  065%=      5-min Rain = 0
KPD1 250610Z 14009KT 22/15 A30 RMK A01 T02200151  RH  065%=      5-min Rain = 0
KPD1 250611Z 15009KT 22/15 A30 RMK A01 T02200151  RH  065%=      5-min Rain = 0
KPD1 250612Z 15008KT 22/15 A30 RMK A01 T02200151  RH  065%=      5-min Rain = 0
KPD1 250613Z 14007KT 22/15 A2999 RMK A01 T02200151  RH  065%=      5-min Rain = 0
KPD1 250614Z 15009KT 22/15 A30 RMK A01 T02200151  RH  065%=      5-min Rain = 0
KPD1 250615Z 15007KT 22/15 A2999 RMK A01 T02190151  RH  065%=      5-min Rain = 0
KPD1 250616Z 15008KT 22/15 A2999 RMK A01 T02190151  RH  065%=      5-min Rain = 0
KPD1 250617Z 15006KT 22/15 A2999 RMK A01 T02180150  RH  065%=      5-min Rain = 0
KPD1 250618Z 15008KT 22/15 A30 RMK A01 T02180151  RH  065%=      5-min Rain = 0
KPD1 250619Z 15009KT 22/15 A30 RMK A01 T02170150  RH  066%=      5-min Rain = 0
KPD1 250620Z 15008KT 22/15 A30 RMK A01 T02170150  RH  066%=      5-min Rain = 0
KPD1 250621Z 15008KT 22/15 A30 RMK A01 T02170150  RH  066%=      5-min Rain = 0
KPD1 250622Z 16008KT 22/15 A30 RMK A01 T02170150  RH  066%=      5-min Rain = 0
KPD1 250623Z 15007KT 22/15 A30 RMK A01 T02170150  RH  066%=      5-min Rain = 0
KPD1 250624Z 16007KT 22/15 A30 RMK A01 T02170150  RH  066%=      5-min Rain = 0
KPD1 250625Z 16008KT 22/15 A30 RMK A01 T02170150  RH  066%=      5-min Rain = 0
KPD1 250626Z 16010KT 22/15 A30 RMK A01 T02170151  RH  066%=      5-min Rain = 0
KPD1 250627Z 16010KT 22/15 A30 RMK A01 T02170151  RH  066%=      5-min Rain = 0
KPD1 250628Z 16011KT 22/15 A30 RMK A01 T02170150  RH  066%=      5-min Rain = 0
KPD1 250629Z 16010KT 22/15 A30 RMK A01 T02180150  RH  065%=      5-min Rain = 0
KPD1 250630Z 16012KT 22/15 A30 RMK A01 T02180150  RH  065%=      5-min Rain = 0
KPD1 250631Z 16011KT 22/15 A30 RMK A01 T02180150  RH  065%=      5-min Rain = 0
KPD1 250632Z 16009KT 22/15 A30 RMK A01 T02190150  RH  065%=      5-min Rain = 0
KPD1 250633Z 17013KT 22/15 A30 RMK A01 T02180150  RH  065%=      5-min Rain = 0
KPD1 250634Z 15009KT 22/15 A30 RMK A01 T02190150  RH  065%=      5-min Rain = 0
KPD1 250635Z 16009KT 22/15 A30 RMK A01 T02190150  RH  065%=      5-min Rain = 0
KPD1 250636Z 16008KT 22/15 A30 RMK A01 T02190150  RH  065%=      5-min Rain = 0
KPD1 250637Z 16009G14KT 22/15 A30 RMK A01 T02190150  RH  065%=      5-min Rain = 0
KPD1 250638Z 17008KT 22/15 A30 RMK A01 T02190150  RH  065%=      5-min Rain = 0
KPD1 250639Z 16008KT 22/15 A30 RMK A01 T02190150  RH  065%=      5-min Rain = 0
KPD1 250640Z 16011KT 22/15 A30 RMK A01 T02200151  RH  065%=      5-min Rain = 0
KPD1 250641Z 16011KT 22/15 A30 RMK A01 T02190151  RH  065%=      5-min Rain = 0
KPD1 250642Z 16009KT 22/15 A30 RMK A01 T02190151  RH  065%=      5-min Rain = 0
KPD1 250643Z 16008G14KT 22/15 A30 RMK A01 T02190151  RH  065%=      5-min Rain = 0
KPD1 250644Z 16011KT 22/15 A30 RMK A01 T02190154  RH  066%=      5-min Rain = 0
KPD1 250645Z 16011G16KT 22/16 A30 RMK A01 T02190157  RH  068%=      5-min Rain = 0
KPD1 250646Z 16010KT 22/16 A30 RMK A01 T02190158  RH  068%=      5-min Rain = 0
KPD1 250647Z 15010KT 22/16 A30 RMK A01 T02180158  RH  068%=      5-min Rain = 0
KPD1 250648Z 15011KT 22/16 A30 RMK A01 T02180157  RH  068%=      5-min Rain = 0
KPD1 250649Z 16011G17KT 22/16 A30 RMK A01 T02170158  RH  069%=      5-min Rain = 0
KPD1 250650Z 16010G15KT 22/16 A30 RMK A01 T02170161  RH  070%=      5-min Rain = 0
KPD1 250651Z 16011KT 22/16 A30 RMK A01 T02170161  RH  071%=      5-min Rain = 0
KPD1 250652Z 16010KT 22/16 A30 RMK A01 T02170161  RH  071%=      5-min Rain = 0
KPD1 250653Z 16011KT 22/16 A30 RMK A01 T02160163  RH  072%=      5-min Rain = 0
KPD1 250654Z 17013KT 22/16 A30 RMK A01 T02160163  RH  072%=      5-min Rain = 0
KPD1 250655Z 17011KT 22/17 A30 RMK A01 T02150165  RH  073%=      5-min Rain = 0
KPD1 250656Z 16009KT 22/17 A30 RMK A01 T02150165  RH  073%=      5-min Rain = 0
KPD1 250657Z 17009KT 22/17 A30 RMK A01 T02150165  RH  073%=      5-min Rain = 0
KPD1 250658Z 17012G18KT 22/17 A30 RMK A01 T02150166  RH  074%=      5-min Rain = 0
KPD1 250659Z 17013KT 22/17 A30 RMK A01 T02150168  RH  074%=      5-min Rain = 0
KPD1 250700Z 15010KT 22/17 A30 RMK A01 T02150168  RH  075%=      5-min Rain = 0
KPD1 250701Z 17010KT 22/17 A30 RMK A01 T02150168  RH  075%=      5-min Rain = 0
KPD1 250702Z 16008KT 22/17 A30 RMK A01 T02150168  RH  075%=      5-min Rain = 0
KPD1 250703Z 15007KT 21/17 A30 RMK A01 T02140168  RH  075%=      5-min Rain = 0
KPD1 250704Z 16009KT 21/17 A30 RMK A01 T02140167  RH  074%=      5-min Rain = 0
KPD1 250705Z 16009KT 21/17 A30 RMK A01 T02140167  RH  075%=      5-min Rain = 0
KPD1 250706Z 16008KT 21/17 A30 RMK A01 T02140168  RH  075%=      5-min Rain = 0
KPD1 250707Z 15009KT 21/17 A30 RMK A01 T02130169  RH  076%=      5-min Rain = 0
KPD1 250708Z 16009KT 21/17 A30 RMK A01 T02130169  RH  076%=      5-min Rain = 0
KPD1 250709Z 15010KT 21/17 A30 RMK A01 T02130169  RH  076%=      5-min Rain = 0
KPD1 250710Z 15012KT 21/17 A30 RMK A01 T02130170  RH  076%=      5-min Rain = 0
KPD1 250711Z 14013KT 21/17 A30 RMK A01 T02130170  RH  077%=      5-min Rain = 0
KPD1 250712Z 15011KT 21/17 A30 RMK A01 T02130171  RH  077%=      5-min Rain = 0
KPD1 250713Z 15012KT 21/17 A2999 RMK A01 T02130172  RH  077%=      5-min Rain = 0
KPD1 250714Z 15011KT 21/17 A2999 RMK A01 T02120172  RH  078%=      5-min Rain = 0
KPD1 250715Z 15009KT 21/17 A2999 RMK A01 T02120173  RH  078%=      5-min Rain = 0
KPD1 250716Z 15007KT 21/17 A2999 RMK A01 T02110172  RH  078%=      5-min Rain = 0
KPD1 250717Z 16011KT 21/17 A2999 RMK A01 T02110172  RH  078%=      5-min Rain = 0
KPD1 250718Z 16010KT 21/17 A2999 RMK A01 T02110171  RH  078%=      5-min Rain = 0
KPD1 250719Z 16012KT 21/17 A2999 RMK A01 T02100172  RH  079%=      5-min Rain = 0
KPD1 250720Z 16007G12KT 21/17 A2999 RMK A01 T02100173  RH  079%=      5-min Rain = 0
KPD1 250721Z 15007KT 21/17 A2999 RMK A01 T02100172  RH  079%=      5-min Rain = 0
KPD1 250722Z 15007KT 21/17 A2999 RMK A01 T02100172  RH  079%=      5-min Rain = 0
KPD1 250723Z 15009KT 21/17 A2999 RMK A01 T02090172  RH  079%=      5-min Rain = 0
KPD1 250724Z 15009KT 21/17 A2999 RMK A01 T02090172  RH  079%=      5-min Rain = 0
KPD1 250725Z 15010KT 21/17 A2999 RMK A01 T02090172  RH  079%=      5-min Rain = 0
KPD1 250726Z 15008KT 21/17 A2999 RMK A01 T02090172  RH  080%=      5-min Rain = 0
KPD1 250727Z 15007KT 21/17 A2999 RMK A01 T02090172  RH  080%=      5-min Rain = 0
KPD1 250728Z 15008KT 21/17 A2999 RMK A01 T02090172  RH  079%=      5-min Rain = 0
KPD1 250729Z 14009G14KT 21/17 A2999 RMK A01 T02090173  RH  079%=      5-min Rain = 0
KPD1 250730Z 14008KT 21/17 A2999 RMK A01 T02100173  RH  079%=      5-min Rain = 0
KPD1 250731Z 16008KT 21/17 A2999 RMK A01 T02100173  RH  080%=      5-min Rain = 0
KPD1 250732Z 15007KT 21/17 A2999 RMK A01 T02100173  RH  080%=      5-min Rain = 0
KPD1 250733Z 14009KT 21/17 A2999 RMK A01 T02100174  RH  080%=      5-min Rain = 0
KPD1 250734Z 14009KT 21/17 A2999 RMK A01 T02100174  RH  080%=      5-min Rain = 0
KPD1 250735Z 15007KT 21/17 A2999 RMK A01 T02100174  RH  080%=      5-min Rain = 0
KPD1 250736Z 14008KT 21/17 A2999 RMK A01 T02090174  RH  080%=      5-min Rain = 0
KPD1 250737Z 15007KT 21/17 A2999 RMK A01 T02090174  RH  080%=      5-min Rain = 0
KPD1 250738Z 15006KT 21/17 A2999 RMK A01 T02080173  RH  080%=      5-min Rain = 0
KPD1 250739Z 16008KT 21/17 A2999 RMK A01 T02080173  RH  081%=      5-min Rain = 0
KPD1 250740Z 15009KT 21/17 A2999 RMK A01 T02080174  RH  081%=      5-min Rain = 0
KPD1 250741Z 15008KT 21/17 A2999 RMK A01 T02070174  RH  081%=      5-min Rain = 0
KPD1 250742Z 16007KT 21/17 A2999 RMK A01 T02070174  RH  081%=      5-min Rain = 0
KPD1 250743Z 16007KT 21/17 A2999 RMK A01 T02070174  RH  082%=      5-min Rain = 0
KPD1 250744Z 16005KT 21/17 A2999 RMK A01 T02060174  RH  082%=      5-min Rain = 0
KPD1 250745Z 17007KT 21/17 A2999 RMK A01 T02060174  RH  082%=      5-min Rain = 0
KPD1 250746Z 16007KT 21/17 A2999 RMK A01 T02060174  RH  082%=      5-min Rain = 0
KPD1 250747Z 16008KT 21/17 A2999 RMK A01 T02050174  RH  083%=      5-min Rain = 0
KPD1 250748Z 16009KT 21/18 A2999 RMK A01 T02050175  RH  083%=      5-min Rain = 0
KPD1 250749Z 16009KT 21/18 A2999 RMK A01 T02050175  RH  083%=      5-min Rain = 0
KPD1 250750Z 17008KT 21/18 A2999 RMK A01 T02050175  RH  083%=      5-min Rain = 0
KPD1 250751Z 15007KT 21/18 A2999 RMK A01 T02060176  RH  083%=      5-min Rain = 0
KPD1 250752Z 16006KT 21/18 A2999 RMK A01 T02060175  RH  083%=      5-min Rain = 0
KPD1 250753Z 15008KT 21/18 A30 RMK A01 T02060175  RH  082%=      5-min Rain = 0
KPD1 250754Z 15007KT 21/18 A30 RMK A01 T02060176  RH  082%=      5-min Rain = 0
KPD1 250755Z 15005KT 21/18 A30 RMK A01 T02070176  RH  082%=      5-min Rain = 0
KPD1 250756Z 15007KT 21/18 A30 RMK A01 T02070176  RH  082%=      5-min Rain = 0
KPD1 250757Z 16007KT 21/18 A30 RMK A01 T02080176  RH  082%=      5-min Rain = 0
KPD1 250758Z 16006KT 21/18 A30 RMK A01 T02080176  RH  082%=      5-min Rain = 0
KPD1 250759Z 16008KT 21/18 A30 RMK A01 T02080177  RH  082%=      5-min Rain = 0
KPD1 250800Z 16006KT 21/18 A30 RMK A01 T02080176  RH  082%=      5-min Rain = 0
KPD1 250801Z 16008KT 21/18 A30 RMK A01 T02080177  RH  082%=      5-min Rain = 0
KPD1 250802Z 16008KT 21/18 A30 RMK A01 T02080177  RH  082%=      5-min Rain = 0
KPD1 250803Z 16006KT 21/18 A30 RMK A01 T02080177  RH  082%=      5-min Rain = 0
KPD1 250804Z 15007KT 21/18 A30 RMK A01 T02080177  RH  082%=      5-min Rain = 0
KPD1 250805Z 14007KT 21/18 A30 RMK A01 T02090178  RH  082%=      5-min Rain = 0
KPD1 250806Z 15008KT 21/18 A30 RMK A01 T02080177  RH  083%=      5-min Rain = 0
KPD1 250807Z 15007KT 21/18 A30 RMK A01 T02080178  RH  083%=      5-min Rain = 0
KPD1 250808Z 15007KT 21/18 A30 RMK A01 T02070177  RH  083%=      5-min Rain = 0
KPD1 250809Z 15008KT 21/18 A30 RMK A01 T02070178  RH  083%=      5-min Rain = 0
KPD1 250810Z 15006KT 21/18 A30 RMK A01 T02070178  RH  084%=      5-min Rain = 0
KPD1 250811Z 15010KT 21/18 A30 RMK A01 T02070179  RH  084%=      5-min Rain = 0
KPD1 250812Z 16009KT 21/18 A30 RMK A01 T02070179  RH  084%=      5-min Rain = 0
KPD1 250813Z 16008KT 21/18 A30 RMK A01 T02070179  RH  084%=      5-min Rain = 0
KPD1 250814Z 16009KT 21/18 A30 RMK A01 T02070179  RH  084%=      5-min Rain = 0
KPD1 250815Z 16007KT 21/18 A30 RMK A01 T02070178  RH  084%=      5-min Rain = 0
KPD1 250816Z 16007KT 21/18 A30 RMK A01 T02070179  RH  084%=      5-min Rain = 0
KPD1 250817Z 17008KT 21/18 A30 RMK A01 T02070179  RH  084%=      5-min Rain = 0
KPD1 250818Z 17007KT 21/18 A30 RMK A01 T02070179  RH  084%=      5-min Rain = 0
KPD1 250819Z 16006KT 21/18 A30 RMK A01 T02070179  RH  084%=      5-min Rain = 0
KPD1 250820Z 17006KT 21/18 A30 RMK A01 T02070179  RH  084%=      5-min Rain = 0
KPD1 250821Z 16007KT 21/18 A30 RMK A01 T02060179  RH  084%=      5-min Rain = 0
KPD1 250822Z 15006KT 21/18 A30 RMK A01 T02060179  RH  084%=      5-min Rain = 0
KPD1 250823Z 15007KT 21/18 A30 RMK A01 T02060179  RH  085%=      5-min Rain = 0
KPD1 250824Z 14007KT 21/18 A30 RMK A01 T02060179  RH  085%=      5-min Rain = 0
KPD1 250825Z 15008KT 21/18 A30 RMK A01 T02050179  RH  085%=      5-min Rain = 0
KPD1 250826Z 15007KT 21/18 A30 RMK A01 T02050179  RH  085%=      5-min Rain = 0
KPD1 250827Z 17006KT 21/18 A30 RMK A01 T02050179  RH  085%=      5-min Rain = 0
KPD1 250828Z 16005KT 21/18 A30 RMK A01 T02050179  RH  085%=      5-min Rain = 0
KPD1 250829Z 14004KT 20/18 A30 RMK A01 T02040179  RH  085%=      5-min Rain = 0
KPD1 250830Z 15006KT 20/18 A30 RMK A01 T02040178  RH  085%=      5-min Rain = 0
KPD1 250831Z 15006KT 20/18 A30 RMK A01 T02040179  RH  086%=      5-min Rain = 0
KPD1 250832Z 15007KT 20/18 A30 RMK A01 T02030179  RH  086%=      5-min Rain = 0
KPD1 250833Z 15006KT 20/18 A30 RMK A01 T02030179  RH  086%=      5-min Rain = 0
KPD1 250834Z 14006KT 20/18 A30 RMK A01 T02030180  RH  086%=      5-min Rain = 0
KPD1 250835Z 15005KT 20/18 A30 RMK A01 T02030179  RH  086%=      5-min Rain = 0
KPD1 250836Z 16006KT 20/18 A30 RMK A01 T02030179  RH  086%=      5-min Rain = 0
KPD1 250837Z 16007KT 20/18 A30 RMK A01 T02030179  RH  086%=      5-min Rain = 0
KPD1 250838Z 15007KT 20/18 A30 RMK A01 T02020179  RH  086%=      5-min Rain = 0
KPD1 250839Z 16008KT 20/18 A30 RMK A01 T02030179  RH  086%=      5-min Rain = 0
KPD1 250840Z 16006KT 20/18 A30 RMK A01 T02020179  RH  086%=      5-min Rain = 0
KPD1 250841Z 16008KT 20/18 A30 RMK A01 T02020179  RH  086%=      5-min Rain = 0
KPD1 250842Z 17007KT 20/18 A30 RMK A01 T02030180  RH  087%=      5-min Rain = 0
KPD1 250843Z 16006KT 20/18 A30 RMK A01 T02030179  RH  087%=      5-min Rain = 0
KPD1 250844Z 16007KT 20/18 A30 RMK A01 T02020179  RH  087%=      5-min Rain = 0
KPD1 250845Z 17008KT 20/18 A30 RMK A01 T02020179  RH  087%=      5-min Rain = 0
KPD1 250846Z 17007KT 20/18 A30 RMK A01 T02010179  RH  087%=      5-min Rain = 0
KPD1 250847Z 17007KT 20/18 A30 RMK A01 T02010179  RH  087%=      5-min Rain = 0
KPD1 250848Z 17007KT 20/18 A30 RMK A01 T02020179  RH  087%=      5-min Rain = 0
KPD1 250849Z 17006KT 20/18 A30 RMK A01 T02020179  RH  087%=      5-min Rain = 0
KPD1 250850Z 17007KT 20/18 A30 RMK A01 T02010179  RH  087%=      5-min Rain = 0
KPD1 250851Z 17006KT 20/18 A30 RMK A01 T02020180  RH  087%=      5-min Rain = 0
KPD1 250852Z 16007KT 20/18 A30 RMK A01 T02010179  RH  087%=      5-min Rain = 0
KPD1 250853Z 17007KT 20/18 A30 RMK A01 T02010179  RH  087%=      5-min Rain = 0
KPD1 250854Z 17007KT 20/18 A30 RMK A01 T02010179  RH  087%=      5-min Rain = 0
KPD1 250855Z 16006KT 20/18 A30 RMK A01 T02010179  RH  087%=      5-min Rain = 0
KPD1 250856Z 16006KT 20/18 A30 RMK A01 T02010179  RH  087%=      5-min Rain = 0
KPD1 250857Z 17005KT 20/18 A30 RMK A01 T02010179  RH  087%=      5-min Rain = 0
KPD1 250858Z 16006KT 20/18 A30 RMK A01 T02000179  RH  087%=      5-min Rain = 0
KPD1 250859Z 16006KT 20/18 A30 RMK A01 T02000179  RH  088%=      5-min Rain = 0
KPD1 250900Z 16004KT 20/18 A30 RMK A01 T01990178  RH  088%=      5-min Rain = 0
KPD1 250901Z 17004KT 20/18 A30 RMK A01 T01990179  RH  088%=      5-min Rain = 0
KPD1 250902Z 17005KT 20/18 A30 RMK A01 T01990178  RH  088%=      5-min Rain = 0
KPD1 250903Z 17004KT 20/18 A30 RMK A01 T01980178  RH  088%=      5-min Rain = 0
KPD1 250904Z 17004KT 20/18 A30 RMK A01 T01980178  RH  088%=      5-min Rain = 0
KPD1 250905Z 18005KT 20/18 A30 RMK A01 T01970178  RH  089%=      5-min Rain = 0
KPD1 250906Z 17005KT 20/18 A30 RMK A01 T01970178  RH  089%=      5-min Rain = 0
KPD1 250907Z 18006KT 20/18 A30 RMK A01 T01970178  RH  089%=      5-min Rain = 0
KPD1 250908Z 18006KT 20/18 A30 RMK A01 T01970178  RH  089%=      5-min Rain = 0
KPD1 250909Z 17006KT 20/18 A30 RMK A01 T01970179  RH  089%=      5-min Rain = 0
KPD1 250910Z 17006KT 20/18 A30 RMK A01 T01970179  RH  089%=      5-min Rain = 0
KPD1 250911Z 17006KT 20/18 A30 RMK A01 T01970179  RH  089%=      5-min Rain = 0
KPD1 250912Z 17005KT 20/18 A30 RMK A01 T01970178  RH  089%=      5-min Rain = 0
KPD1 250913Z 17007KT 20/18 A30 RMK A01 T01970179  RH  089%=      5-min Rain = 0
KPD1 250914Z 17006KT 20/18 A30 RMK A01 T01960178  RH  089%=      5-min Rain = 0
KPD1 250915Z 17007KT 20/18 A30 RMK A01 T01970179  RH  089%=      5-min Rain = 0
KPD1 250916Z 17006KT 20/18 A30 RMK A01 T01970179  RH  089%=      5-min Rain = 0
KPD1 250917Z 17007KT 20/18 A30 RMK A01 T01970179  RH  089%=      5-min Rain = 0
KPD1 250918Z 17007KT 20/18 A30 RMK A01 T01970179  RH  090%=      5-min Rain = 0
KPD1 250919Z 17008KT 20/18 A30 RMK A01 T01960179  RH  089%=      5-min Rain = 0
KPD1 250920Z 17008KT 20/18 A30 RMK A01 T01970179  RH  089%=      5-min Rain = 0
KPD1 250921Z 17007KT 20/18 A30 RMK A01 T01960179  RH  089%=      5-min Rain = 0
KPD1 250922Z 18006KT 20/18 A30 RMK A01 T01960179  RH  089%=      5-min Rain = 0
KPD1 250923Z 18006KT 20/18 A30 RMK A01 T01970179  RH  089%=      5-min Rain = 0
KPD1 250924Z 18007KT 20/18 A30 RMK A01 T01960178  RH  089%=      5-min Rain = 0
KPD1 250925Z 17009KT 20/18 A30 RMK A01 T01960179  RH  090%=      5-min Rain = 0
KPD1 250926Z 17008KT 20/18 A30 RMK A01 T01960179  RH  090%=      5-min Rain = 0
KPD1 250927Z 18007KT 20/18 A30 RMK A01 T01970179  RH  090%=      5-min Rain = 0
KPD1 250928Z 18006KT 20/18 A30 RMK A01 T01970179  RH  089%=      5-min Rain = 0
KPD1 250929Z 18006KT 20/18 A30 RMK A01 T01970179  RH  089%=      5-min Rain = 0
KPD1 250930Z 18007KT 20/18 A30 RMK A01 T01960178  RH  089%=      5-min Rain = 0
KPD1 250931Z 17008KT 20/18 A30 RMK A01 T01960178  RH  089%=      5-min Rain = 0
KPD1 250932Z 17006KT 20/18 A30 RMK A01 T01960178  RH  090%=      5-min Rain = 0
KPD1 250933Z 17006KT 20/18 A30 RMK A01 T01950178  RH  090%=      5-min Rain = 0
KPD1 250934Z 17006KT 20/18 A30 RMK A01 T01960178  RH  090%=      5-min Rain = 0
KPD1 250935Z 17006KT 20/18 A30 RMK A01 T01950178  RH  090%=      5-min Rain = 0
KPD1 250936Z 17006KT 20/18 A30 RMK A01 T01950178  RH  090%=      5-min Rain = 0
KPD1 250937Z 17008KT 20/18 A30 RMK A01 T01950178  RH  090%=      5-min Rain = 0
KPD1 250938Z 17005KT 20/18 A30 RMK A01 T01950178  RH  090%=      5-min Rain = 0
KPD1 250939Z 17007KT 20/18 A30 RMK A01 T01960179  RH  090%=      5-min Rain = 0
KPD1 250940Z 18006KT 20/18 A30 RMK A01 T01960178  RH  090%=      5-min Rain = 0
KPD1 250941Z 16007KT 20/18 A30 RMK A01 T01950178  RH  090%=      5-min Rain = 0
KPD1 250942Z 17007KT 20/18 A30 RMK A01 T01950178  RH  090%=      5-min Rain = 0
KPD1 250943Z 16006KT 20/18 A30 RMK A01 T01950179  RH  090%=      5-min Rain = 0
KPD1 250944Z 17005KT 20/18 A30 RMK A01 T01950178  RH  090%=      5-min Rain = 0
KPD1 250945Z 17007KT 19/18 A30 RMK A01 T01940178  RH  090%=      5-min Rain = 0
KPD1 250946Z 17007KT 19/18 A30 RMK A01 T01940178  RH  090%=      5-min Rain = 0
KPD1 250947Z 17006KT 19/18 A30 RMK A01 T01940178  RH  091%=      5-min Rain = 0
KPD1 250948Z 17006KT 19/18 A30 RMK A01 T01940178  RH  090%=      5-min Rain = 0
KPD1 250949Z 17006KT 19/18 A30 RMK A01 T01940178  RH  090%=      5-min Rain = 0
KPD1 250950Z 17005KT 19/18 A30 RMK A01 T01940178  RH  091%=      5-min Rain = 0
KPD1 250951Z 17005KT 19/18 A30 RMK A01 T01930177  RH  091%=      5-min Rain = 0
KPD1 250952Z 17005KT 19/18 A30 RMK A01 T01930177  RH  091%=      5-min Rain = 0
KPD1 250953Z 17005KT 19/18 A30 RMK A01 T01930177  RH  091%=      5-min Rain = 0
KPD1 250954Z 17006KT 19/18 A30 RMK A01 T01920177  RH  091%=      5-min Rain = 0
KPD1 250955Z 17006KT 19/18 A30 RMK A01 T01920177  RH  091%=      5-min Rain = 0
KPD1 250956Z 17007KT 19/18 A30 RMK A01 T01910177  RH  091%=      5-min Rain = 0
KPD1 250957Z 18006KT 19/18 A30 RMK A01 T01910177  RH  091%=      5-min Rain = 0
KPD1 250958Z 17006KT 19/18 A30 RMK A01 T01910177  RH  092%=      5-min Rain = 0
KPD1 250959Z 17006KT 19/18 A30 RMK A01 T01910178  RH  092%=      5-min Rain = 0
KPD1 251000Z 17005KT 19/18 A30 RMK A01 T01910177  RH  092%=      5-min Rain = 0
KPD1 251001Z 18006KT 19/18 A30 RMK A01 T01910177  RH  092%=      5-min Rain = 0
KPD1 251002Z 18006KT 19/18 A30 RMK A01 T01910177  RH  092%=      5-min Rain = 0
KPD1 251003Z 17006KT 19/18 A30 RMK A01 T01900177  RH  092%=      5-min Rain = 0
KPD1 251004Z 17007KT 19/18 A30 RMK A01 T01900177  RH  092%=      5-min Rain = 0
KPD1 251005Z 18007KT 19/18 A30 RMK A01 T01900177  RH  092%=      5-min Rain = 0
KPD1 251006Z 18006KT 19/18 A30 RMK A01 T01900177  RH  092%=      5-min Rain = 0
KPD1 251007Z 17006KT 19/18 A30 RMK A01 T01900177  RH  092%=      5-min Rain = 0
KPD1 251008Z 18006KT 19/18 A30 RMK A01 T01900177  RH  092%=      5-min Rain = 0
KPD1 251009Z 18007KT 19/18 A30 RMK A01 T01900177  RH  092%=      5-min Rain = 0
KPD1 251010Z 17006KT 19/18 A30 RMK A01 T01890177  RH  092%=      5-min Rain = 0
KPD1 251011Z 17006KT 19/18 A30 RMK A01 T01900177  RH  092%=      5-min Rain = 0
KPD1 251012Z 18006KT 19/18 A30 RMK A01 T01900177  RH  092%=      5-min Rain = 0
KPD1 251013Z 17006KT 19/18 A30 RMK A01 T01900177  RH  092%=      5-min Rain = 0
KPD1 251014Z 17006KT 19/18 A30 RMK A01 T01900177  RH  092%=      5-min Rain = 0
KPD1 251015Z 17005KT 19/18 A30 RMK A01 T01900177  RH  092%=      5-min Rain = 0
KPD1 251016Z 17005KT 19/18 A30 RMK A01 T01890176  RH  092%=      5-min Rain = 0
KPD1 251017Z 17006KT 19/18 A30 RMK A01 T01900177  RH  092%=      5-min Rain = 0
KPD1 251018Z 17006KT 19/18 A30 RMK A01 T01900177  RH  092%=      5-min Rain = 0
KPD1 251019Z 17005KT 19/18 A30 RMK A01 T01900177  RH  092%=      5-min Rain = 0
KPD1 251020Z 17006KT 19/18 A30 RMK A01 T01900177  RH  092%=      5-min Rain = 0
KPD1 251021Z 17007KT 19/18 A30 RMK A01 T01900177  RH  092%=      5-min Rain = 0
KPD1 251022Z 16006KT 19/18 A30 RMK A01 T01900176  RH  092%=      5-min Rain = 0
KPD1 251023Z 16007KT 19/18 A30 RMK A01 T01900177  RH  092%=      5-min Rain = 0
KPD1 251024Z 16007KT 19/18 A30 RMK A01 T01900177  RH  092%=      5-min Rain = 0
KPD1 251025Z 16006KT 19/18 A30 RMK A01 T01900177  RH  092%=      5-min Rain = 0
KPD1 251026Z 16005KT 19/18 A30 RMK A01 T01900177  RH  092%=      5-min Rain = 0
KPD1 251027Z 16006KT 19/18 A30 RMK A01 T01890176  RH  092%=      5-min Rain = 0
KPD1 251028Z 16006KT 19/18 A30 RMK A01 T01900176  RH  092%=      5-min Rain = 0
KPD1 251029Z 16005KT 19/18 A30 RMK A01 T01890176  RH  092%=      5-min Rain = 0
KPD1 251030Z 16005KT 19/18 A30 RMK A01 T01890176  RH  092%=      5-min Rain = 0
KPD1 251031Z 16006KT 19/18 A30 RMK A01 T01890176  RH  092%=      5-min Rain = 0
KPD1 251032Z 16006KT 19/18 A30 RMK A01 T01880176  RH  092%=      5-min Rain = 0
KPD1 251033Z 16006KT 19/18 A30 RMK A01 T01880176  RH  093%=      5-min Rain = 0
KPD1 251034Z 16006KT 19/18 A30 RMK A01 T01880176  RH  093%=      5-min Rain = 0
KPD1 251035Z 16007KT 19/18 A30 RMK A01 T01880176  RH  093%=      5-min Rain = 0
KPD1 251036Z 16006KT 19/18 A30 RMK A01 T01880176  RH  093%=      5-min Rain = 0
KPD1 251037Z 16006KT 19/18 A30 RMK A01 T01880176  RH  093%=      5-min Rain = 0
KPD1 251038Z 17007KT 19/18 A30 RMK A01 T01890177  RH  093%=      5-min Rain = 0
KPD1 251039Z 17007KT 19/18 A30 RMK A01 T01880177  RH  093%=      5-min Rain = 0
KPD1 251040Z 16006KT 19/18 A30 RMK A01 T01880177  RH  093%=      5-min Rain = 0
KPD1 251041Z 16005KT 19/18 A30 RMK A01 T01880176  RH  093%=      5-min Rain = 0
KPD1 251042Z 16006KT 19/18 A30 RMK A01 T01880176  RH  093%=      5-min Rain = 0
KPD1 251043Z 16005KT 19/18 A30 RMK A01 T01880176  RH  092%=      5-min Rain = 0
KPD1 251044Z 16005KT 19/18 A30 RMK A01 T01880176  RH  092%=      5-min Rain = 0
KPD1 251045Z 15005KT 19/18 A30 RMK A01 T01880176  RH  092%=      5-min Rain = 0
KPD1 251046Z 15006KT 19/18 A30 RMK A01 T01880175  RH  092%=      5-min Rain = 0
KPD1 251047Z 16006KT 19/17 A30 RMK A01 T01870174  RH  092%=      5-min Rain = 0
KPD1 251048Z 16005KT 19/18 A3001 RMK A01 T01870175  RH  092%=      5-min Rain = 0
KPD1 251049Z 16005KT 19/18 A3001 RMK A01 T01870175  RH  093%=      5-min Rain = 0
KPD1 251050Z 16006KT 19/18 A3001 RMK A01 T01860175  RH  093%=      5-min Rain = 0
KPD1 251051Z 15005KT 19/17 A3001 RMK A01 T01860174  RH  093%=      5-min Rain = 0
KPD1 251052Z 15005KT 19/18 A3001 RMK A01 T01860175  RH  093%=      5-min Rain = 0
KPD1 251053Z 16006KT 19/18 A3001 RMK A01 T01870175  RH  093%=      5-min Rain = 0
KPD1 251054Z 16006KT 19/17 A3001 RMK A01 T01860174  RH  093%=      5-min Rain = 0
KPD1 251055Z 16006KT 19/17 A3001 RMK A01 T01860174  RH  093%=      5-min Rain = 0
KPD1 251056Z 16005KT 19/18 A3001 RMK A01 T01870175  RH  093%=      5-min Rain = 0
KPD1 251057Z 16006KT 19/17 A3001 RMK A01 T01860174  RH  093%=      5-min Rain = 0
KPD1 251058Z 17007KT 19/17 A3001 RMK A01 T01860174  RH  093%=      5-min Rain = 0
KPD1 251059Z 17006KT 19/17 A3001 RMK A01 T01860174  RH  093%=      5-min Rain = 0
KPD1 251100Z 17007KT 19/17 A3001 RMK A01 T01860174  RH  093%=      5-min Rain = 0
KPD1 251101Z 17007KT 19/17 A3001 RMK A01 T01860174  RH  093%=      5-min Rain = 0
KPD1 251102Z 17007KT 19/17 A3001 RMK A01 T01860174  RH  092%=      5-min Rain = 0
KPD1 251103Z 17006KT 19/17 A3001 RMK A01 T01860174  RH  092%=      5-min Rain = 0
KPD1 251104Z 17006KT 19/17 A3001 RMK A01 T01860174  RH  092%=      5-min Rain = 0
KPD1 251105Z 16006KT 19/17 A3001 RMK A01 T01860174  RH  092%=      5-min Rain = 0
KPD1 251106Z 17007KT 19/17 A3001 RMK A01 T01870174  RH  092%=      5-min Rain = 0
KPD1 251107Z 16006KT 19/17 A3001 RMK A01 T01860174  RH  092%=      5-min Rain = 0
KPD1 251108Z 17006KT 19/17 A3001 RMK A01 T01870174  RH  092%=      5-min Rain = 0
KPD1 251109Z 17007KT 19/17 A3001 RMK A01 T01860173  RH  092%=      5-min Rain = 0
KPD1 251110Z 17006KT 19/17 A3001 RMK A01 T01860173  RH  092%=      5-min Rain = 0
KPD1 251111Z 17005KT 19/17 A3001 RMK A01 T01870174  RH  092%=      5-min Rain = 0
KPD1 251112Z 16005KT 19/17 A3001 RMK A01 T01860173  RH  092%=      5-min Rain = 0
KPD1 251113Z 17006KT 19/17 A3001 RMK A01 T01860173  RH  092%=      5-min Rain = 0
KPD1 251114Z 17006KT 19/17 A3001 RMK A01 T01860173  RH  092%=      5-min Rain = 0
KPD1 251115Z 16006KT 19/17 A3001 RMK A01 T01850172  RH  092%=      5-min Rain = 0
KPD1 251116Z 17008KT 19/17 A3001 RMK A01 T01850172  RH  092%=      5-min Rain = 0
KPD1 251117Z 17007KT 19/17 A3001 RMK A01 T01850172  RH  092%=      5-min Rain = 0
KPD1 251118Z 17006KT 19/17 A3001 RMK A01 T01860173  RH  092%=      5-min Rain = 0
KPD1 251119Z 17005KT 19/17 A3001 RMK A01 T01860173  RH  092%=      5-min Rain = 0
KPD1 251120Z 16006KT 19/17 A3002 RMK A01 T01860173  RH  092%=      5-min Rain = 0
KPD1 251121Z 17006KT 19/17 A3002 RMK A01 T01850173  RH  092%=      5-min Rain = 0
KPD1 251122Z 16006KT 19/17 A3002 RMK A01 T01850172  RH  092%=      5-min Rain = 0
KPD1 251123Z 17007KT 19/17 A3002 RMK A01 T01850172  RH  092%=      5-min Rain = 0
KPD1 251124Z 17007KT 19/17 A3002 RMK A01 T01850172  RH  092%=      5-min Rain = 0
KPD1 251125Z 17003KT 19/17 A3002 RMK A01 T01850172  RH  092%=      5-min Rain = 0
KPD1 251126Z 17005KT 19/17 A3002 RMK A01 T01850172  RH  092%=      5-min Rain = 0
KPD1 251127Z 16006KT 19/17 A3002 RMK A01 T01850172  RH  092%=      5-min Rain = 0
KPD1 251128Z 16005KT 18/17 A3002 RMK A01 T01840171  RH  092%=      5-min Rain = 0
KPD1 251129Z 17007KT 18/17 A3002 RMK A01 T01840172  RH  092%=      5-min Rain = 0
KPD1 251130Z 16005KT 19/17 A3002 RMK A01 T01850172  RH  092%=      5-min Rain = 0
KPD1 251131Z 17004KT 18/17 A3003 RMK A01 T01840171  RH  092%=      5-min Rain = 0
KPD1 251132Z 17004KT 18/17 A3003 RMK A01 T01840170  RH  092%=      5-min Rain = 0
KPD1 251133Z 17006KT 18/17 A3003 RMK A01 T01840170  RH  092%=      5-min Rain = 0
KPD1 251134Z 16006KT 18/17 A3003 RMK A01 T01840170  RH  092%=      5-min Rain = 0
KPD1 251135Z 16005KT 18/17 A3003 RMK A01 T01840170  RH  092%=      5-min Rain = 0
KPD1 251136Z 16007KT 18/17 A3003 RMK A01 T01840170  RH  091%=      5-min Rain = 0
KPD1 251137Z 17006KT 18/17 A3003 RMK A01 T01830169  RH  091%=      5-min Rain = 0
KPD1 251138Z 16006KT 18/17 A3003 RMK A01 T01830169  RH  091%=      5-min Rain = 0
KPD1 251139Z 17006KT 18/17 A3003 RMK A01 T01830169  RH  091%=      5-min Rain = 0
KPD1 251140Z 17006KT 18/17 A3003 RMK A01 T01830168  RH  091%=      5-min Rain = 0
KPD1 251141Z 17007KT 18/17 A3003 RMK A01 T01820168  RH  091%=      5-min Rain = 0
KPD1 251142Z 17008KT 18/17 A3003 RMK A01 T01820168  RH  091%=      5-min Rain = 0
KPD1 251143Z 17007KT 18/17 A3003 RMK A01 T01830168  RH  091%=      5-min Rain = 0
KPD1 251144Z 17006KT 18/17 A3003 RMK A01 T01820168  RH  091%=      5-min Rain = 0
KPD1 251145Z 17006KT 18/17 A3003 RMK A01 T01820168  RH  091%=      5-min Rain = 0
KPD1 251146Z 18007KT 18/17 A3003 RMK A01 T01820167  RH  091%=      5-min Rain = 0
KPD1 251147Z 17006KT 18/17 A3003 RMK A01 T01820167  RH  091%=      5-min Rain = 0
KPD1 251148Z 17006KT 18/17 A3003 RMK A01 T01820166  RH  091%=      5-min Rain = 0
KPD1 251149Z 17006KT 18/17 A3003 RMK A01 T01820166  RH  090%=      5-min Rain = 0
KPD1 251150Z 18007KT 18/17 A3003 RMK A01 T01820166  RH  090%=      5-min Rain = 0
KPD1 251151Z 18007KT 18/17 A3003 RMK A01 T01820165  RH  090%=      5-min Rain = 0
KPD1 251152Z 18007KT 18/17 A3003 RMK A01 T01820165  RH  090%=      5-min Rain = 0
KPD1 251153Z 18007KT 18/17 A3003 RMK A01 T01810165  RH  090%=      5-min Rain = 0
KPD1 251154Z 18006KT 18/17 A3003 RMK A01 T01820165  RH  090%=      5-min Rain = 0
KPD1 251155Z 17006KT 18/17 A3003 RMK A01 T01820165  RH  090%=      5-min Rain = 0
KPD1 251156Z 17007KT 18/17 A3003 RMK A01 T01820165  RH  090%=      5-min Rain = 0
KPD1 251157Z 17006KT 18/17 A3003 RMK A01 T01820165  RH  090%=      5-min Rain = 0
KPD1 251158Z 17008KT 18/17 A3003 RMK A01 T01820165  RH  090%=      5-min Rain = 0
KPD1 251159Z 18007KT 18/16 A3003 RMK A01 T01820164  RH  089%=      5-min Rain = 0
KPD1 251200Z 17008KT 18/16 A3003 RMK A01 T01830163  RH  088%=      5-min Rain = 0
KPD1 251201Z 16008KT 18/16 A3003 RMK A01 T01840163  RH  088%=      5-min Rain = 0
KPD1 251202Z 17006KT 18/16 A3003 RMK A01 T01840162  RH  087%=      5-min Rain = 0
KPD1 251203Z 18006KT 18/16 A3003 RMK A01 T01840162  RH  087%=      5-min Rain = 0
KPD1 251204Z 17007KT 18/16 A3004 RMK A01 T01840162  RH  087%=      5-min Rain = 0
KPD1 251205Z 17006KT 19/16 A3004 RMK A01 T01850162  RH  087%=      5-min Rain = 0
KPD1 251206Z 17006KT 19/16 A3004 RMK A01 T01850163  RH  087%=      5-min Rain = 0
KPD1 251207Z 17006KT 18/16 A3004 RMK A01 T01840162  RH  087%=      5-min Rain = 0
KPD1 251208Z 16007KT 18/16 A3004 RMK A01 T01840162  RH  087%=      5-min Rain = 0
KPD1 251209Z 17007KT 18/16 A3004 RMK A01 T01840162  RH  087%=      5-min Rain = 0
KPD1 251210Z 17006KT 18/16 A3004 RMK A01 T01840162  RH  087%=      5-min Rain = 0
KPD1 251211Z 17006KT 18/16 A3004 RMK A01 T01840161  RH  087%=      5-min Rain = 0
KPD1 251212Z 17007KT 18/16 A3004 RMK A01 T01840161  RH  086%=      5-min Rain = 0
KPD1 251213Z 17006KT 19/16 A3004 RMK A01 T01850161  RH  086%=      5-min Rain = 0
KPD1 251214Z 17005KT 18/16 A3004 RMK A01 T01840161  RH  086%=      5-min Rain = 0
KPD1 251215Z 16007KT 19/16 A3004 RMK A01 T01850161  RH  086%=      5-min Rain = 0
KPD1 251216Z 17006KT 19/16 A3004 RMK A01 T01850162  RH  086%=      5-min Rain = 0
KPD1 251217Z 16008KT 19/16 A3004 RMK A01 T01850161  RH  086%=      5-min Rain = 0
KPD1 251218Z 17006KT 19/16 A3004 RMK A01 T01850161  RH  086%=      5-min Rain = 0
KPD1 251219Z 17005KT 19/16 A3004 RMK A01 T01850160  RH  086%=      5-min Rain = 0
KPD1 251220Z 18005KT 18/16 A3005 RMK A01 T01840160  RH  086%=      5-min Rain = 0
KPD1 251221Z 16005KT 19/16 A3005 RMK A01 T01850160  RH  086%=      5-min Rain = 0
KPD1 251222Z 17005KT 18/16 A3005 RMK A01 T01840160  RH  086%=      5-min Rain = 0
KPD1 251223Z 17006KT 19/16 A3005 RMK A01 T01850160  RH  086%=      5-min Rain = 0
KPD1 251224Z 16007KT 19/16 A3005 RMK A01 T01850159  RH  085%=      5-min Rain = 0
KPD1 251225Z 17006KT 18/16 A3005 RMK A01 T01840158  RH  084%=      5-min Rain = 0
KPD1 251226Z 17007KT 19/16 A3005 RMK A01 T01850157  RH  084%=      5-min Rain = 0
KPD1 251227Z 17007KT 19/16 A3005 RMK A01 T01850157  RH  084%=      5-min Rain = 0
KPD1 251228Z 17007KT 19/16 A3005 RMK A01 T01850156  RH  083%=      5-min Rain = 0
KPD1 251229Z 16007KT 19/16 A3005 RMK A01 T01850155  RH  083%=      5-min Rain = 0
KPD1 251230Z 16007KT 19/16 A3005 RMK A01 T01860156  RH  082%=      5-min Rain = 0
KPD1 251231Z 17006KT 19/16 A3005 RMK A01 T01860155  RH  082%=      5-min Rain = 0
KPD1 251232Z 16006KT 19/16 A3005 RMK A01 T01860155  RH  082%=      5-min Rain = 0
KPD1 251233Z 17007KT 19/16 A3005 RMK A01 T01860155  RH  082%=      5-min Rain = 0
KPD1 251234Z 17005KT 19/15 A3005 RMK A01 T01870154  RH  081%=      5-min Rain = 0
KPD1 251235Z 17006KT 19/16 A3005 RMK A01 T01870155  RH  082%=      5-min Rain = 0
KPD1 251236Z 16005KT 19/15 A3005 RMK A01 T01870154  RH  081%=      5-min Rain = 0
KPD1 251237Z 16006KT 19/16 A3005 RMK A01 T01870155  RH  081%=      5-min Rain = 0
KPD1 251238Z 16005KT 19/15 A3005 RMK A01 T01870154  RH  081%=      5-min Rain = 0
KPD1 251239Z 16006KT 19/15 A3005 RMK A01 T01880154  RH  081%=      5-min Rain = 0
KPD1 251240Z 17005KT 19/15 A3005 RMK A01 T01880153  RH  080%=      5-min Rain = 0
KPD1 251241Z 16005KT 19/15 A3005 RMK A01 T01880154  RH  080%=      5-min Rain = 0
KPD1 251242Z 16006KT 19/15 A3005 RMK A01 T01880154  RH  080%=      5-min Rain = 0
KPD1 251243Z 16007KT 19/15 A3005 RMK A01 T01890152  RH  079%=      5-min Rain = 0
KPD1 251244Z 17006KT 19/15 A3005 RMK A01 T01890151  RH  079%=      5-min Rain = 0
KPD1 251245Z 17007KT 19/15 A3005 RMK A01 T01900152  RH  079%=      5-min Rain = 0
KPD1 251246Z 17006KT 19/15 A3005 RMK A01 T01900152  RH  078%=      5-min Rain = 0
KPD1 251247Z 17007KT 19/15 A3005 RMK A01 T01900151  RH  078%=      5-min Rain = 0
KPD1 251248Z 17006KT 19/15 A3005 RMK A01 T01910152  RH  078%=      5-min Rain = 0
KPD1 251249Z 17006KT 19/15 A3005 RMK A01 T01910152  RH  078%=      5-min Rain = 0
KPD1 251250Z 17005KT 19/15 A3005 RMK A01 T01910151  RH  078%=      5-min Rain = 0
KPD1 251251Z 16005KT 19/15 A3005 RMK A01 T01920152  RH  078%=      5-min Rain = 0
KPD1 251252Z 16006KT 19/15 A3004 RMK A01 T01920152  RH  077%=      5-min Rain = 0
KPD1 251253Z 16005KT 19/15 A3004 RMK A01 T01930151  RH  077%=      5-min Rain = 0
KPD1 251254Z 16006KT 19/15 A3004 RMK A01 T01930150  RH  076%=      5-min Rain = 0
KPD1 251255Z 17007KT 19/15 A3004 RMK A01 T01940151  RH  076%=      5-min Rain = 0
KPD1 251256Z 16005KT 19/15 A3004 RMK A01 T01940150  RH  076%=      5-min Rain = 0
KPD1 251257Z 17004KT 20/15 A3004 RMK A01 T01950151  RH  076%=      5-min Rain = 0
KPD1 251258Z 16006KT 20/15 A3004 RMK A01 T01950151  RH  076%=      5-min Rain = 0
KPD1 251259Z 16006KT 20/15 A3004 RMK A01 T01960150  RH  075%=      5-min Rain = 0
KPD1 251300Z 17005KT 20/15 A3004 RMK A01 T01960151  RH  075%=      5-min Rain = 0
KPD1 251301Z 16005KT 20/15 A3004 RMK A01 T01970150  RH  074%=      5-min Rain = 0
KPD1 251302Z 17005KT 20/15 A3004 RMK A01 T01970150  RH  074%=      5-min Rain = 0
KPD1 251303Z 17006KT 20/15 A3004 RMK A01 T01970150  RH  074%=      5-min Rain = 0
KPD1 251304Z 17007KT 20/15 A3004 RMK A01 T01980149  RH  073%=      5-min Rain = 0
KPD1 251305Z 19005KT 20/15 A3004 RMK A01 T01980148  RH  073%=      5-min Rain = 0
KPD1 251306Z 18006KT 20/15 A3004 RMK A01 T01980148  RH  073%=      5-min Rain = 0
KPD1 251307Z 17004KT 20/15 A3004 RMK A01 T01990149  RH  073%=      5-min Rain = 0
KPD1 251308Z 19006KT 20/15 A3004 RMK A01 T01990149  RH  073%=      5-min Rain = 0
KPD1 251309Z 18006KT 20/15 A3004 RMK A01 T02000148  RH  072%=      5-min Rain = 0
KPD1 251310Z 18005KT 20/15 A3004 RMK A01 T02010148  RH  072%=      5-min Rain = 0
KPD1 251311Z 18007KT 20/15 A3004 RMK A01 T02010147  RH  071%=      5-min Rain = 0
KPD1 251312Z 18006KT 20/15 A3004 RMK A01 T02010146  RH  070%=      5-min Rain = 0
KPD1 251313Z 18006KT 20/15 A3004 RMK A01 T02020148  RH  071%=      5-min Rain = 0
KPD1 251314Z 18006KT 20/15 A3004 RMK A01 T02020147  RH  070%=      5-min Rain = 0
KPD1 251315Z 17005KT 20/15 A3004 RMK A01 T02020147  RH  070%=      5-min Rain = 0
KPD1 251316Z 18004KT 20/15 A3004 RMK A01 T02030147  RH  070%=      5-min Rain = 0
KPD1 251317Z 18005KT 20/15 A3004 RMK A01 T02040147  RH  070%=      5-min Rain = 0
KPD1 251318Z 17005KT 20/15 A3004 RMK A01 T02040147  RH  070%=      5-min Rain = 0
KPD1 251319Z 17006KT 21/15 A3004 RMK A01 T02050146  RH  069%=      5-min Rain = 0
KPD1 251320Z 18006KT 21/14 A3004 RMK A01 T02050144  RH  068%=      5-min Rain = 0
KPD1 251321Z 19006KT 21/14 A3004 RMK A01 T02050144  RH  068%=      5-min Rain = 0
KPD1 251322Z 19005KT 21/14 A3004 RMK A01 T02050143  RH  068%=      5-min Rain = 0
KPD1 251323Z 17005KT 21/14 A3004 RMK A01 T02050144  RH  068%=      5-min Rain = 0
KPD1 251324Z 18005KT 21/15 A3005 RMK A01 T02060147  RH  069%=      5-min Rain = 0
KPD1 251325Z 18006KT 21/15 A3005 RMK A01 T02060146  RH  068%=      5-min Rain = 0
KPD1 251326Z 19007KT 21/15 A3005 RMK A01 T02070146  RH  068%=      5-min Rain = 0
KPD1 251327Z 17005KT 21/14 A3005 RMK A01 T02070144  RH  067%=      5-min Rain = 0
KPD1 251328Z 16005KT 21/14 A3005 RMK A01 T02070144  RH  067%=      5-min Rain = 0
KPD1 251329Z 16006KT 21/14 A3005 RMK A01 T02080144  RH  067%=      5-min Rain = 0
KPD1 251330Z 18005KT 21/15 A3005 RMK A01 T02080145  RH  067%=      5-min Rain = 0
KPD1 251331Z 19004KT 21/15 A3005 RMK A01 T02090145  RH  067%=      5-min Rain = 0
KPD1 251332Z 16004KT 21/15 A3005 RMK A01 T02090145  RH  067%=      5-min Rain = 0
KPD1 251333Z 18005KT 21/15 A3005 RMK A01 T02100148  RH  068%=      5-min Rain = 0
KPD1 251334Z 16004KT 21/15 A3005 RMK A01 T02110147  RH  067%=      5-min Rain = 0
KPD1 251335Z 20006KT 21/15 A3005 RMK A01 T02120147  RH  066%=      5-min Rain = 0
KPD1 251336Z 19008KT 21/15 A3005 RMK A01 T02120145  RH  066%=      5-min Rain = 0
KPD1 251337Z 17006KT 21/14 A3005 RMK A01 T02120142  RH  064%=      5-min Rain = 0
KPD1 251338Z 16005KT 21/14 A3005 RMK A01 T02120144  RH  065%=      5-min Rain = 0
KPD1 251339Z 17003KT 21/15 A3004 RMK A01 T02130145  RH  065%=      5-min Rain = 0
KPD1 251340Z 24005KT 21/15 A3005 RMK A01 T02130147  RH  066%=      5-min Rain = 0
KPD1 251341Z 21006KT 22/15 A3005 RMK A01 T02150148  RH  066%=      5-min Rain = 0
KPD1 251342Z 21006KT 22/15 A3005 RMK A01 T02150147  RH  065%=      5-min Rain = 0
KPD1 251343Z 19006KT 22/15 A3005 RMK A01 T02160145  RH  064%=      5-min Rain = 0
KPD1 251344Z 19005KT 22/15 A3005 RMK A01 T02170146  RH  064%=      5-min Rain = 0
KPD1 251345Z 16005KT 22/14 A3005 RMK A01 T02170144  RH  063%=      5-min Rain = 0
KPD1 251346Z 17004KT 22/15 A3005 RMK A01 T02170147  RH  064%=      5-min Rain = 0
KPD1 251347Z 18004KT 22/15 A3005 RMK A01 T02180149  RH  065%=      5-min Rain = 0
KPD1 251348Z 18004KT 22/15 A3005 RMK A01 T02190147  RH  064%=      5-min Rain = 0
KPD1 251349Z 18004KT 22/14 A3004 RMK A01 T02190144  RH  062%=      5-min Rain = 0
KPD1 251350Z 21007KT 22/15 A3005 RMK A01 T02200146  RH  063%=      5-min Rain = 0
KPD1 251351Z 21008KT 22/15 A3005 RMK A01 T02190145  RH  062%=      5-min Rain = 0
KPD1 251352Z 20005G10KT 22/15 A3005 RMK A01 T02200145  RH  062%=      5-min Rain = 0
KPD1 251353Z 19006KT 22/15 A3005 RMK A01 T02200145  RH  062%=      5-min Rain = 0
KPD1 251354Z 20003KT 22/15 A3005 RMK A01 T02200145  RH  062%=      5-min Rain = 0
KPD1 251355Z 18004KT 22/15 A3004 RMK A01 T02200145  RH  062%=      5-min Rain = 0
KPD1 251356Z 19005KT 22/15 A3005 RMK A01 T02200146  RH  063%=      5-min Rain = 0
KPD1 251357Z 22008KT 22/15 A3005 RMK A01 T02210146  RH  062%=      5-min Rain = 0
KPD1 251358Z 26004G9KT 22/14 A3005 RMK A01 T02210144  RH  062%=      5-min Rain = 0
KPD1 251359Z 19003KT 22/15 A3005 RMK A01 T02210147  RH  063%=      5-min Rain = 0
KPD1 251400Z 17004KT 22/15 A3005 RMK A01 T02230150  RH  063%=      5-min Rain = 0
KPD1 251401Z 18006KT 23/15 A3005 RMK A01 T02250149  RH  062%=      5-min Rain = 0
KPD1 251402Z 18004KT 23/15 A3005 RMK A01 T02250149  RH  062%=      5-min Rain = 0
KPD1 251403Z 19004KT 23/15 A3005 RMK A01 T02260149  RH  062%=      5-min Rain = 0
KPD1 251404Z 18003KT 23/15 A3005 RMK A01 T02270150  RH  061%=      5-min Rain = 0
KPD1 251405Z 17004KT 23/15 A3005 RMK A01 T02280152  RH  062%=      5-min Rain = 0
KPD1 251406Z 16006KT 23/15 A3005 RMK A01 T02290151  RH  061%=      5-min Rain = 0
KPD1 251407Z 18004KT 23/15 A3004 RMK A01 T02300148  RH  060%=      5-min Rain = 0
KPD1 251408Z 20006KT 23/15 A3005 RMK A01 T02300150  RH  061%=      5-min Rain = 0
KPD1 251409Z 20005KT 23/15 A3005 RMK A01 T02290147  RH  060%=      5-min Rain = 0
KPD1 251410Z 20004KT 23/15 A3005 RMK A01 T02300149  RH  060%=      5-min Rain = 0
KPD1 251411Z 19003KT 23/15 A3005 RMK A01 T02300151  RH  061%=      5-min Rain = 0
KPD1 251412Z 20006KT 23/15 A3005 RMK A01 T02320150  RH  060%=      5-min Rain = 0
KPD1 251413Z 16005KT 23/15 A3005 RMK A01 T02320150  RH  060%=      5-min Rain = 0
KPD1 251414Z 16004KT 23/15 A3005 RMK A01 T02320150  RH  060%=      5-min Rain = 0
KPD1 251415Z 21005KT 23/15 A3005 RMK A01 T02330151  RH  060%=      5-min Rain = 0
KPD1 251416Z 18002KT 23/15 A3005 RMK A01 T02330152  RH  060%=      5-min Rain = 0
KPD1 251417Z 16005KT 23/15 A3005 RMK A01 T02340152  RH  060%=      5-min Rain = 0
KPD1 251418Z 18003KT 24/15 A3005 RMK A01 T02350150  RH  059%=      5-min Rain = 0
KPD1 251419Z 19005KT 24/15 A3005 RMK A01 T02360149  RH  058%=      5-min Rain = 0
KPD1 251420Z 21003KT 24/15 A3005 RMK A01 T02360150  RH  059%=      5-min Rain = 0
KPD1 251421Z 18003KT 24/15 A3005 RMK A01 T02360150  RH  059%=      5-min Rain = 0
KPD1 251422Z 21002KT 24/15 A3005 RMK A01 T02360148  RH  057%=      5-min Rain = 0
KPD1 251423Z 18004KT 24/15 A3005 RMK A01 T02360149  RH  058%=      5-min Rain = 0
KPD1 251424Z 20004KT 24/15 A3005 RMK A01 T02370150  RH  058%=      5-min Rain = 0
KPD1 251425Z 17003KT 24/15 A3005 RMK A01 T02380150  RH  058%=      5-min Rain = 0
KPD1 251426Z 17004KT 24/15 A3005 RMK A01 T02390150  RH  058%=      5-min Rain = 0
KPD1 251427Z 16003KT 24/15 A3005 RMK A01 T02390148  RH  057%=      5-min Rain = 0
KPD1 251428Z 17003KT 24/15 A3005 RMK A01 T02390151  RH  058%=      5-min Rain = 0
KPD1 251429Z 18001KT 24/15 A3005 RMK A01 T02400150  RH  057%=      5-min Rain = 0
KPD1 251430Z 19003KT 24/15 A3005 RMK A01 T02410151  RH  057%=      5-min Rain = 0
KPD1 251431Z 20004KT 24/15 A3004 RMK A01 T02420150  RH  056%=      5-min Rain = 0
KPD1 251432Z 21003KT 24/15 A3004 RMK A01 T02440151  RH  056%=      5-min Rain = 0
KPD1 251433Z 22004KT 25/15 A3004 RMK A01 T02450152  RH  056%=      5-min Rain = 0
KPD1 251434Z 21006KT 25/15 A3004 RMK A01 T02470151  RH  055%=      5-min Rain = 0
KPD1 251435Z 22008KT 25/15 A3005 RMK A01 T02480147  RH  053%=      5-min Rain = 0
KPD1 251436Z 20007KT 25/15 A3005 RMK A01 T02480145  RH  053%=      5-min Rain = 0
KPD1 251437Z 21008KT 25/15 A3005 RMK A01 T02470145  RH  053%=      5-min Rain = 0
KPD1 251438Z 21005G10KT 25/15 A3005 RMK A01 T02490147  RH  053%=      5-min Rain = 0
KPD1 251439Z 23005KT 25/15 A3005 RMK A01 T02510151  RH  054%=      5-min Rain = 0
KPD1 251440Z 22007KT 25/15 A3005 RMK A01 T02530147  RH  052%=      5-min Rain = 0
KPD1 251441Z 21007KT 25/15 A3005 RMK A01 T02530147  RH  052%=      5-min Rain = 0
KPD1 251442Z 19006KT 25/14 A3005 RMK A01 T02530142  RH  050%=      5-min Rain = 0
KPD1 251443Z 19008KT 25/14 A3005 RMK A01 T02520143  RH  051%=      5-min Rain = 0
KPD1 251444Z 21007KT 25/14 A3005 RMK A01 T02520143  RH  051%=      5-min Rain = 0
KPD1 251445Z 23004KT 25/15 A3005 RMK A01 T02530146  RH  051%=      5-min Rain = 0
KPD1 251446Z 20008KT 25/15 A3005 RMK A01 T02540148  RH  052%=      5-min Rain = 0
KPD1 251447Z 20008KT 26/15 A3005 RMK A01 T02560148  RH  051%=      5-min Rain = 0
KPD1 251448Z 22007KT 26/15 A3005 RMK A01 T02570145  RH  050%=      5-min Rain = 0
KPD1 251449Z 21006KT 26/15 A3005 RMK A01 T02580146  RH  050%=      5-min Rain = 0
KPD1 251450Z 21006KT 26/15 A3005 RMK A01 T02590149  RH  051%=      5-min Rain = 0
KPD1 251451Z 21006KT 26/15 A3005 RMK A01 T02610151  RH  051%=      5-min Rain = 0
KPD1 251452Z 21005KT 26/15 A3005 RMK A01 T02620147  RH  049%=      5-min Rain = 0
KPD1 251453Z 23010KT 26/15 A3005 RMK A01 T02630146  RH  049%=      5-min Rain = 0
KPD1 251454Z 23008KT 26/14 A3005 RMK A01 T02620142  RH  048%=      5-min Rain = 0
KPD1 251455Z 24007KT 26/15 A3005 RMK A01 T02610145  RH  049%=      5-min Rain = 0
KPD1 251456Z 23008KT 26/15 A3005 RMK A01 T02620148  RH  049%=      5-min Rain = 0
KPD1 251457Z 23010KT 26/15 A3005 RMK A01 T02640145  RH  048%=      5-min Rain = 0
KPD1 251458Z 24007KT 26/15 A3005 RMK A01 T02640145  RH  048%=      5-min Rain = 0
KPD1 251459Z 23006KT 26/15 A3005 RMK A01 T02640147  RH  049%=      5-min Rain = 0
KPD1 251500Z 21005KT 27/15 A3005 RMK A01 T02650149  RH  049%=      5-min Rain = 0
KPD1 251501Z 21005G11KT 27/15 A3005 RMK A01 T02670151  RH  049%=      5-min Rain = 0
KPD1 251502Z 22009KT 27/15 A3005 RMK A01 T02690150  RH  048%=      5-min Rain = 0
KPD1 251503Z 22010KT 27/14 A3005 RMK A01 T02690144  RH  046%=      5-min Rain = 0
KPD1 251504Z 21008KT 27/14 A3005 RMK A01 T02680142  RH  046%=      5-min Rain = 0
KPD1 251505Z 21008KT 27/14 A3005 RMK A01 T02670144  RH  047%=      5-min Rain = 0
KPD1 251506Z 23006KT 27/15 A3005 RMK A01 T02660145  RH  047%=      5-min Rain = 0
KPD1 251507Z 20006KT 27/15 A3005 RMK A01 T02680149  RH  048%=      5-min Rain = 0
KPD1 251508Z 21008KT 27/15 A3005 RMK A01 T02700148  RH  047%=      5-min Rain = 0
KPD1 251509Z 21006KT 27/15 A3005 RMK A01 T02720146  RH  046%=      5-min Rain = 0
KPD1 251510Z 20006KT 27/15 A3004 RMK A01 T02730151  RH  047%=      5-min Rain = 0
KPD1 251511Z 19011KT 28/15 A3004 RMK A01 T02750147  RH  046%=      5-min Rain = 0
KPD1 251512Z 20010KT 28/14 A3004 RMK A01 T02750142  RH  044%=      5-min Rain = 0
KPD1 251513Z 20009KT 27/15 A3004 RMK A01 T02730145  RH  045%=      5-min Rain = 0
KPD1 251514Z 21009KT 27/14 A3004 RMK A01 T02730144  RH  045%=      5-min Rain = 0
KPD1 251515Z 21008KT 27/14 A3004 RMK A01 T02730143  RH  045%=      5-min Rain = 0
KPD1 251516Z 21007KT 27/15 A3004 RMK A01 T02740145  RH  045%=      5-min Rain = 0
KPD1 251517Z 20006G11KT 28/15 A3004 RMK A01 T02750149  RH  046%=      5-min Rain = 0
KPD1 251518Z 21008KT 28/15 A3004 RMK A01 T02780148  RH  045%=      5-min Rain = 0
KPD1 251519Z 22010KT 28/15 A3004 RMK A01 T02780148  RH  045%=      5-min Rain = 0
KPD1 251520Z 20010KT 28/15 A3004 RMK A01 T02780146  RH  044%=      5-min Rain = 0
KPD1 251521Z 20011KT 28/15 A3004 RMK A01 T02780145  RH  044%=      5-min Rain = 0
KPD1 251522Z 19009KT 28/15 A3004 RMK A01 T02780145  RH  044%=      5-min Rain = 0
KPD1 251523Z 19010KT 28/15 A3004 RMK A01 T02770146  RH  045%=      5-min Rain = 0
KPD1 251524Z 19009KT 28/15 A3004 RMK A01 T02760145  RH  045%=      5-min Rain = 0
KPD1 251525Z 20010KT 28/15 A3004 RMK A01 T02760147  RH  045%=      5-min Rain = 0
KPD1 251526Z 24008KT 28/15 A3004 RMK A01 T02770148  RH  045%=      5-min Rain = 0
KPD1 251527Z 25008KT 28/15 A3004 RMK A01 T02780149  RH  045%=      5-min Rain = 0
KPD1 251528Z 23007KT 28/15 A3004 RMK A01 T02790149  RH  045%=      5-min Rain = 0
KPD1 251529Z 22007KT 28/15 A3004 RMK A01 T02800153  RH  046%=      5-min Rain = 0
KPD1 251530Z 23008KT 28/15 A3004 RMK A01 T02820152  RH  045%=      5-min Rain = 0
KPD1 251531Z 22007KT 28/15 A3004 RMK A01 T02830151  RH  045%=      5-min Rain = 0
KPD1 251532Z 21006G11KT 28/15 A3004 RMK A01 T02830152  RH  045%=      5-min Rain = 0
KPD1 251533Z 22007KT 28/15 A3004 RMK A01 T02840150  RH  044%=      5-min Rain = 0
KPD1 251534Z 24008KT 28/15 A3004 RMK A01 T02830149  RH  044%=      5-min Rain = 0
KPD1 251535Z 23008KT 28/15 A3004 RMK A01 T02830150  RH  044%=      5-min Rain = 0
KPD1 251536Z 23009KT 28/15 A3004 RMK A01 T02830149  RH  044%=      5-min Rain = 0
KPD1 251537Z 22009KT 28/15 A3004 RMK A01 T02820148  RH  044%=      5-min Rain = 0
KPD1 251538Z 20008KT 28/15 A3004 RMK A01 T02810147  RH  044%=      5-min Rain = 0
KPD1 251539Z 22007KT 28/15 A3004 RMK A01 T02810150  RH  045%=      5-min Rain = 0
KPD1 251540Z 21008KT 28/15 A3004 RMK A01 T02820151  RH  045%=      5-min Rain = 0
KPD1 251541Z 22006KT 28/15 A3004 RMK A01 T02830149  RH  044%=      5-min Rain = 0
KPD1 251542Z 24008KT 28/15 A3004 RMK A01 T02840151  RH  044%=      5-min Rain = 0
KPD1 251543Z 23005KT 29/15 A3004 RMK A01 T02850152  RH  044%=      5-min Rain = 0
KPD1 251544Z 23004KT 29/16 A3004 RMK A01 T02860156  RH  045%=      5-min Rain = 0
KPD1 251545Z 24006KT 29/15 A3004 RMK A01 T02870154  RH  044%=      5-min Rain = 0
KPD1 251546Z 24007KT 29/15 A3004 RMK A01 T02880151  RH  043%=      5-min Rain = 0
KPD1 251547Z 23005KT 29/15 A3004 RMK A01 T02870149  RH  043%=      5-min Rain = 0
KPD1 251548Z 24005KT 29/15 A3004 RMK A01 T02860149  RH  043%=      5-min Rain = 0
KPD1 251549Z 21006G11KT 29/15 A3004 RMK A01 T02860151  RH  044%=      5-min Rain = 0
KPD1 251550Z 21010KT 29/15 A3004 RMK A01 T02870151  RH  043%=      5-min Rain = 0
KPD1 251551Z 21009KT 29/15 A3004 RMK A01 T02880148  RH  042%=      5-min Rain = 0
KPD1 251552Z 21009KT 29/15 A3004 RMK A01 T02890151  RH  043%=      5-min Rain = 0
KPD1 251553Z 22009KT 29/15 A3004 RMK A01 T02910149  RH  042%=      5-min Rain = 0
KPD1 251554Z 21008KT 29/15 A3004 RMK A01 T02910150  RH  042%=      5-min Rain = 0
KPD1 251555Z 22008KT 29/15 A3004 RMK A01 T02910150  RH  042%=      5-min Rain = 0
KPD1 251556Z 22006KT 29/15 A3003 RMK A01 T02920151  RH  042%=      5-min Rain = 0
KPD1 251557Z 21008KT 29/15 A3003 RMK A01 T02920152  RH  043%=      5-min Rain = 0
KPD1 251558Z 22008G13KT 29/15 A3003 RMK A01 T02930149  RH  042%=      5-min Rain = 0
KPD1 251559Z 23006KT 29/15 A3003 RMK A01 T02930149  RH  041%=      5-min Rain = 0
KPD1 251600Z 22010KT 29/15 A3003 RMK A01 T02930152  RH  042%=      5-min Rain = 0
KPD1 251601Z 22010KT 29/15 A3003 RMK A01 T02940150  RH  041%=      5-min Rain = 0
KPD1 251602Z 23007KT 29/15 A3003 RMK A01 T02940149  RH  041%=      5-min Rain = 0
KPD1 251603Z 24006KT 29/15 A3003 RMK A01 T02930149  RH  041%=      5-min Rain = 0
KPD1 251604Z 23008KT 29/15 A3003 RMK A01 T02930152  RH  042%=      5-min Rain = 0
KPD1 251605Z 22006KT 30/16 A3003 RMK A01 T02950155  RH  043%=      5-min Rain = 0
KPD1 251606Z 21007KT 30/16 A3003 RMK A01 T02980158  RH  043%=      5-min Rain = 0
KPD1 251607Z 21005KT 30/15 A3003 RMK A01 T03000153  RH  041%=      5-min Rain = 0
KPD1 251608Z 23007KT 30/16 A3003 RMK A01 T03000155  RH  041%=      5-min Rain = 0
KPD1 251609Z 21010G16KT 30/16 A3003 RMK A01 T03010155  RH  041%=      5-min Rain = 0
KPD1 251610Z 20011KT 30/15 A3004 RMK A01 T03010152  RH  040%=      5-min Rain = 0
KPD1 251611Z 21010KT 30/15 A3004 RMK A01 T03010148  RH  039%=      5-min Rain = 0
KPD1 251612Z 22008KT 30/15 A3004 RMK A01 T02990149  RH  040%=      5-min Rain = 0
KPD1 251613Z 21007KT 30/15 A3004 RMK A01 T02990153  RH  041%=      5-min Rain = 0
KPD1 251614Z 20008KT 30/15 A3004 RMK A01 T03010149  RH  040%=      5-min Rain = 0
KPD1 251615Z 21008KT 30/15 A3004 RMK A01 T03010151  RH  040%=      5-min Rain = 0
KPD1 251616Z 21003KT 30/15 A3004 RMK A01 T03010150  RH  040%=      5-min Rain = 0
KPD1 251617Z 20006KT 30/15 A3004 RMK A01 T03020154  RH  041%=      5-min Rain = 0
KPD1 251618Z 21008KT 30/15 A3004 RMK A01 T03040151  RH  040%=      5-min Rain = 0
KPD1 251619Z 20009KT 30/15 A3004 RMK A01 T03040150  RH  039%=      5-min Rain = 0
KPD1 251620Z 20008KT 30/15 A3004 RMK A01 T03040151  RH  039%=      5-min Rain = 0
KPD1 251621Z 20009KT 30/15 A3004 RMK A01 T03040150  RH  039%=      5-min Rain = 0
KPD1 251622Z 20005KT 30/15 A3004 RMK A01 T03040153  RH  040%=      5-min Rain = 0
KPD1 251623Z 22004KT 31/16 A3004 RMK A01 T03060155  RH  040%=      5-min Rain = 0
KPD1 251624Z 21008KT 31/16 A3004 RMK A01 T03090156  RH  040%=      5-min Rain = 0
KPD1 251625Z 24007KT 31/15 A3004 RMK A01 T03090149  RH  038%=      5-min Rain = 0
KPD1 251626Z 22006KT 31/15 A3004 RMK A01 T03070148  RH  038%=      5-min Rain = 0
KPD1 251627Z 20005KT 31/15 A3004 RMK A01 T03050147  RH  038%=      5-min Rain = 0
KPD1 251628Z 19005G10KT 30/15 A3004 RMK A01 T03030149  RH  039%=      5-min Rain = 0
KPD1 251629Z 22008KT 30/15 A3004 RMK A01 T03040151  RH  039%=      5-min Rain = 0
KPD1 251630Z 22012KT 31/15 A3004 RMK A01 T03060149  RH  038%=      5-min Rain = 0
KPD1 251631Z 22010KT 31/15 A3004 RMK A01 T03060147  RH  038%=      5-min Rain = 0
KPD1 251632Z 23007KT 31/15 A3004 RMK A01 T03060149  RH  038%=      5-min Rain = 0
KPD1 251633Z 22006G11KT 31/15 A3004 RMK A01 T03060149  RH  039%=      5-min Rain = 0
KPD1 251634Z 20005KT 31/15 A3004 RMK A01 T03050151  RH  039%=      5-min Rain = 0
KPD1 251635Z 20006KT 31/15 A3004 RMK A01 T03050151  RH  039%=      5-min Rain = 0
KPD1 251636Z 19008KT 31/15 A3004 RMK A01 T03070149  RH  038%=      5-min Rain = 0
KPD1 251637Z 19008KT 31/15 A3004 RMK A01 T03080148  RH  038%=      5-min Rain = 0
KPD1 251638Z 20009KT 31/15 A3004 RMK A01 T03090150  RH  038%=      5-min Rain = 0
KPD1 251639Z 21009KT 31/15 A3004 RMK A01 T03100151  RH  038%=      5-min Rain = 0
KPD1 251640Z 22008KT 31/15 A3004 RMK A01 T03120150  RH  038%=      5-min Rain = 0
KPD1 251641Z 22009KT 31/15 A3004 RMK A01 T03130150  RH  037%=      5-min Rain = 0
KPD1 251642Z 24007KT 31/15 A3004 RMK A01 T03130151  RH  037%=      5-min Rain = 0
KPD1 251643Z 23010KT 31/15 A3004 RMK A01 T03130150  RH  037%=      5-min Rain = 0
KPD1 251644Z 20009KT 31/15 A3004 RMK A01 T03130149  RH  037%=      5-min Rain = 0
KPD1 251645Z 20005KT 31/15 A3004 RMK A01 T03130153  RH  038%=      5-min Rain = 0
KPD1 251646Z 21006KT 32/15 A3004 RMK A01 T03150151  RH  037%=      5-min Rain = 0
KPD1 251647Z 20005KT 32/15 A3004 RMK A01 T03150152  RH  037%=      5-min Rain = 0
KPD1 251648Z 20008KT 32/15 A3004 RMK A01 T03150150  RH  037%=      5-min Rain = 0
KPD1 251649Z 19006G11KT 32/15 A3004 RMK A01 T03150148  RH  036%=      5-min Rain = 0
KPD1 251650Z 21008KT 31/15 A3004 RMK A01 T03140151  RH  037%=      5-min Rain = 0
KPD1 251651Z 19007KT 32/15 A3004 RMK A01 T03150149  RH  037%=      5-min Rain = 0
KPD1 251652Z 18007KT 32/15 A3004 RMK A01 T03160148  RH  036%=      5-min Rain = 0
KPD1 251653Z 19008KT 32/15 A3003 RMK A01 T03150150  RH  037%=      5-min Rain = 0
KPD1 251654Z 19006KT 32/15 A3004 RMK A01 T03160151  RH  037%=      5-min Rain = 0
KPD1 251655Z 22006KT 32/15 A3004 RMK A01 T03180150  RH  036%=      5-min Rain = 0
KPD1 251656Z 21005KT 32/15 A3004 RMK A01 T03170148  RH  036%=      5-min Rain = 0
KPD1 251657Z 19006KT 32/15 A3003 RMK A01 T03160148  RH  036%=      5-min Rain = 0
KPD1 251658Z 18009KT 32/15 A3004 RMK A01 T03150150  RH  037%=      5-min Rain = 0
KPD1 251659Z 18005KT 32/15 A3003 RMK A01 T03170145  RH  035%=      5-min Rain = 0
KPD1 251700Z 19006KT 32/15 A3003 RMK A01 T03170146  RH  035%=      5-min Rain = 0
KPD1 251701Z 21007KT 32/15 A3003 RMK A01 T03190149  RH  036%=      5-min Rain = 0
KPD1 251702Z 24005KT 32/15 A3003 RMK A01 T03210147  RH  035%=      5-min Rain = 0
KPD1 251703Z 22010KT 32/15 A3003 RMK A01 T03210145  RH  034%=      5-min Rain = 0
KPD1 251704Z 19008KT 32/15 A3003 RMK A01 T03210147  RH  035%=      5-min Rain = 0
KPD1 251705Z 19008KT 32/15 A3003 RMK A01 T03220146  RH  035%=      5-min Rain = 0
KPD1 251706Z 20006G12KT 32/15 A3003 RMK A01 T03230146  RH  034%=      5-min Rain = 0
KPD1 251707Z 21006KT 32/15 A3003 RMK A01 T03240149  RH  035%=      5-min Rain = 0
KPD1 251708Z 19008KT 32/15 A3003 RMK A01 T03240150  RH  035%=      5-min Rain = 0
KPD1 251709Z 19012KT 33/15 A3003 RMK A01 T03260150  RH  035%=      5-min Rain = 0
KPD1 251710Z 19007KT 33/15 A3003 RMK A01 T03250145  RH  034%=      5-min Rain = 0
KPD1 251711Z 20007KT 32/14 A3003 RMK A01 T03220142  RH  034%=      5-min Rain = 0
KPD1 251712Z 17006KT 32/15 A3003 RMK A01 T03210149  RH  035%=      5-min Rain = 0
KPD1 251713Z 20006KT 32/16 A3003 RMK A01 T03240155  RH  036%=      5-min Rain = 0
KPD1 251714Z 21006KT 33/15 A3003 RMK A01 T03280154  RH  035%=      5-min Rain = 0
KPD1 251715Z 23005KT 33/15 A3003 RMK A01 T03310150  RH  034%=      5-min Rain = 0
KPD1 251716Z 24006KT 33/15 A3003 RMK A01 T03310148  RH  033%=      5-min Rain = 0
KPD1 251717Z 21008KT 33/15 A3003 RMK A01 T03310146  RH  033%=      5-min Rain = 0
KPD1 251718Z 20005KT 33/15 A3003 RMK A01 T03300147  RH  033%=      5-min Rain = 0
KPD1 251719Z 21005G10KT 33/15 A3003 RMK A01 T03300151  RH  034%=      5-min Rain = 0
KPD1 251720Z 22008KT 33/15 A3003 RMK A01 T03310147  RH  033%=      5-min Rain = 0
KPD1 251721Z 21003KT 33/15 A3003 RMK A01 T03310147  RH  033%=      5-min Rain = 0
KPD1 251722Z 21002KT 33/14 A3003 RMK A01 T03300139  RH  031%=      5-min Rain = 0
KPD1 251723Z 18006G11KT 33/14 A3003 RMK A01 T03290142  RH  032%=      5-min Rain = 0
KPD1 251724Z 20008KT 33/14 A3003 RMK A01 T03290144  RH  033%=      5-min Rain = 0
KPD1 251725Z 17007KT 33/14 A3003 RMK A01 T03300144  RH  033%=      5-min Rain = 0
KPD1 251726Z 20007KT 33/15 A3003 RMK A01 T03320145  RH  033%=      5-min Rain = 0
KPD1 251727Z 18010KT 33/14 A3003 RMK A01 T03330143  RH  032%=      5-min Rain = 0
KPD1 251728Z 18012KT 33/14 A3003 RMK A01 T03330142  RH  032%=      5-min Rain = 0
KPD1 251729Z 18010KT 33/14 A3003 RMK A01 T03310141  RH  032%=      5-min Rain = 0
KPD1 251730Z 18012KT 33/14 A3003 RMK A01 T03300141  RH  032%=      5-min Rain = 0
KPD1 251731Z 19011KT 33/14 A3003 RMK A01 T03290139  RH  032%=      5-min Rain = 0
KPD1 251732Z 19008KT 33/14 A3003 RMK A01 T03290143  RH  033%=      5-min Rain = 0
KPD1 251733Z 18006KT 33/15 A3003 RMK A01 T03300148  RH  033%=      5-min Rain = 0
KPD1 251734Z 18009KT 33/14 A3003 RMK A01 T03340143  RH  032%=      5-min Rain = 0
KPD1 251735Z 17007KT 33/14 A3003 RMK A01 T03340143  RH  032%=      5-min Rain = 0
KPD1 251736Z 18008KT 33/14 A3003 RMK A01 T03330144  RH  032%=      5-min Rain = 0
KPD1 251737Z 17010KT 33/15 A3003 RMK A01 T03340145  RH  032%=      5-min Rain = 0
KPD1 251738Z 18012KT 34/14 A3003 RMK A01 T03350140  RH  031%=      5-min Rain = 0
KPD1 251739Z 20009KT 33/14 A3003 RMK A01 T03340140  RH  031%=      5-min Rain = 0
KPD1 251740Z 19010G18KT 33/14 A3003 RMK A01 T03320144  RH  032%=      5-min Rain = 0
KPD1 251741Z 19012KT 33/14 A3003 RMK A01 T03330139  RH  031%=      5-min Rain = 0
KPD1 251742Z 21009KT 33/14 A3003 RMK A01 T03320141  RH  031%=      5-min Rain = 0
KPD1 251743Z 19006G11KT 33/14 A3003 RMK A01 T03330141  RH  031%=      5-min Rain = 0
KPD1 251744Z 18008KT 33/14 A3003 RMK A01 T03330142  RH  031%=      5-min Rain = 0
KPD1 251745Z 16007KT 34/14 A3003 RMK A01 T03350143  RH  032%=      5-min Rain = 0
KPD1 251746Z 17008KT 34/14 A3003 RMK A01 T03360143  RH  031%=      5-min Rain = 0
KPD1 251747Z 18007KT 34/15 A3003 RMK A01 T03360149  RH  032%=      5-min Rain = 0
KPD1 251748Z 18010KT 34/14 A3003 RMK A01 T03380144  RH  031%=      5-min Rain = 0
KPD1 251749Z 19010G18KT 34/15 A3003 RMK A01 T03390145  RH  031%=      5-min Rain = 0
KPD1 251750Z 18012KT 34/14 A3003 RMK A01 T03380141  RH  030%=      5-min Rain = 0
KPD1 251751Z 17012KT 34/14 A3003 RMK A01 T03380137  RH  030%=      5-min Rain = 0
KPD1 251752Z 18007KT 34/14 A3003 RMK A01 T03370138  RH  030%=      5-min Rain = 0
KPD1 251753Z 19009KT 34/14 A3003 RMK A01 T03360138  RH  030%=      5-min Rain = 0
KPD1 251754Z 19005KT 34/14 A3003 RMK A01 T03350140  RH  031%=      5-min Rain = 0
KPD1 251755Z 22006KT 34/14 A3003 RMK A01 T03360138  RH  030%=      5-min Rain = 0
KPD1 251756Z 20007KT 34/14 A3003 RMK A01 T03370139  RH  030%=      5-min Rain = 0
KPD1 251757Z 20006KT 34/14 A3003 RMK A01 T03380139  RH  030%=      5-min Rain = 0
KPD1 251758Z 20006KT 34/14 A3003 RMK A01 T03390136  RH  029%=      5-min Rain = 0
KPD1 251759Z 20007KT 34/15 A3003 RMK A01 T03400145  RH  031%=      5-min Rain = 0
KPD1 251800Z 23007KT 34/14 A3003 RMK A01 T03430141  RH  030%=      5-min Rain = 0
KPD1 251801Z 22009KT 34/14 A3002 RMK A01 T03420140  RH  030%=      5-min Rain = 0
KPD1 251802Z 18010KT 34/14 A3003 RMK A01 T03420138  RH  029%=      5-min Rain = 0
KPD1 251803Z 18007KT 34/14 A3002 RMK A01 T03420135  RH  029%=      5-min Rain = 0
KPD1 251804Z 19009KT 34/14 A3002 RMK A01 T03410137  RH  029%=      5-min Rain = 0
KPD1 251805Z 18008KT 34/13 A3002 RMK A01 T03410132  RH  028%=      5-min Rain = 0
KPD1 251806Z 18014KT 34/13 A3002 RMK A01 T03410131  RH  028%=      5-min Rain = 0
KPD1 251807Z 17013KT 34/13 A3002 RMK A01 T03390130  RH  028%=      5-min Rain = 0
KPD1 251808Z 18008G13KT 34/13 A3002 RMK A01 T03380131  RH  029%=      5-min Rain = 0
KPD1 251809Z 20008KT 34/13 A3002 RMK A01 T03400134  RH  029%=      5-min Rain = 0
KPD1 251810Z 17005G13KT 34/13 A3002 RMK A01 T03420129  RH  028%=      5-min Rain = 0
KPD1 251811Z 16010KT 34/13 A3002 RMK A01 T03420134  RH  029%=      5-min Rain = 0
KPD1 251812Z 19008KT 34/14 A3002 RMK A01 T03430136  RH  029%=      5-min Rain = 0
KPD1 251813Z 21008KT 34/14 A3002 RMK A01 T03430135  RH  029%=      5-min Rain = 0
KPD1 251814Z 23008KT 34/13 A3002 RMK A01 T03440131  RH  028%=      5-min Rain = 0
KPD1 251815Z 24006KT 34/12 A3002 RMK A01 T03440121  RH  026%=      5-min Rain = 0
KPD1 251816Z 20009G15KT 34/13 A3002 RMK A01 T03410126  RH  027%=      5-min Rain = 0
KPD1 251817Z 17012KT 34/12 A3002 RMK A01 T03410124  RH  027%=      5-min Rain = 0
KPD1 251818Z 17012KT 34/13 A3002 RMK A01 T03400126  RH  027%=      5-min Rain = 0
KPD1 251819Z 17009KT 34/13 A3002 RMK A01 T03400127  RH  028%=      5-min Rain = 0
KPD1 251820Z 19010KT 34/13 A3002 RMK A01 T03420127  RH  027%=      5-min Rain = 0
KPD1 251821Z 18005KT 34/12 A3002 RMK A01 T03410122  RH  027%=      5-min Rain = 0
KPD1 251822Z 17008KT 34/13 A3002 RMK A01 T03410126  RH  027%=      5-min Rain = 0
KPD1 251823Z 16010KT 34/13 A3002 RMK A01 T03420130  RH  028%=      5-min Rain = 0
KPD1 251824Z 16010KT 35/12 A3002 RMK A01 T03450123  RH  026%=      5-min Rain = 0
KPD1 251825Z 15010G15KT 35/12 A3002 RMK A01 T03460122  RH  026%=      5-min Rain = 0
KPD1 251826Z 15010KT 35/12 A3002 RMK A01 T03460124  RH  026%=      5-min Rain = 0
KPD1 251827Z 16010KT 35/12 A3002 RMK A01 T03470122  RH  026%=      5-min Rain = 0
KPD1 251828Z 18009G14KT 35/13 A3002 RMK A01 T03460128  RH  027%=      5-min Rain = 0
KPD1 251829Z 16011G17KT 35/13 A3002 RMK A01 T03470128  RH  027%=      5-min Rain = 0
KPD1 251830Z 18009KT 35/13 A3002 RMK A01 T03480129  RH  027%=      5-min Rain = 0
KPD1 251831Z 18011KT 35/12 A3002 RMK A01 T03480124  RH  026%=      5-min Rain = 0
KPD1 251832Z 19010KT 35/12 A3002 RMK A01 T03480117  RH  025%=      5-min Rain = 0
KPD1 251833Z 21009KT 35/12 A3002 RMK A01 T03480121  RH  025%=      5-min Rain = 0
KPD1 251834Z 20007KT 35/12 A3002 RMK A01 T03490122  RH  025%=      5-min Rain = 0
KPD1 251835Z 21009KT 35/12 A3002 RMK A01 T03510120  RH  025%=      5-min Rain = 0
KPD1 251836Z 20005KT 35/12 A3002 RMK A01 T03500118  RH  025%=      5-min Rain = 0
KPD1 251837Z 18009KT 35/12 A3002 RMK A01 T03510122  RH  025%=      5-min Rain = 0
KPD1 251838Z 21007KT 35/12 A3002 RMK A01 T03520119  RH  024%=      5-min Rain = 0
KPD1 251839Z 21009KT 35/11 A3002 RMK A01 T03510105  RH  022%=      5-min Rain = 0
KPD1 251840Z 20013KT 35/10 A3002 RMK A01 T03490097  RH  022%=      5-min Rain = 0
KPD1 251841Z 19011KT 35/10 A3002 RMK A01 T03470097  RH  022%=      5-min Rain = 0
KPD1 251842Z 24009KT 35/10 A3002 RMK A01 T03450103  RH  023%=      5-min Rain = 0
KPD1 251843Z 24007KT 34/10 A3001 RMK A01 T03440102  RH  023%=      5-min Rain = 0
KPD1 251844Z 23006G11KT 34/10 A3001 RMK A01 T03430103  RH  023%=      5-min Rain = 0
KPD1 251845Z 18009G14KT 34/11 A3001 RMK A01 T03440106  RH  023%=      5-min Rain = 0
KPD1 251846Z 17007KT 35/11 A3001 RMK A01 T03450106  RH  023%=      5-min Rain = 0
KPD1 251847Z 18006KT 34/11 A3001 RMK A01 T03440109  RH  024%=      5-min Rain = 0
KPD1 251848Z 19007KT 34/11 A3001 RMK A01 T03440114  RH  025%=      5-min Rain = 0
KPD1 251849Z 19006KT 35/12 A3001 RMK A01 T03460122  RH  026%=      5-min Rain = 0
KPD1 251850Z 17008KT 35/12 A3001 RMK A01 T03510124  RH  025%=      5-min Rain = 0
KPD1 251851Z 17005KT 35/12 A3001 RMK A01 T03530118  RH  024%=      5-min Rain = 0
KPD1 251852Z 16005KT 35/11 A3001 RMK A01 T03530109  RH  023%=      5-min Rain = 0
KPD1 251853Z 16003KT 35/11 A3001 RMK A01 T03510108  RH  023%=      5-min Rain = 0
KPD1 251854Z 18007G12KT 35/11 A3001 RMK A01 T03490109  RH  023%=      5-min Rain = 0
KPD1 251855Z 17010KT 35/11 A3001 RMK A01 T03490110  RH  024%=      5-min Rain = 0
KPD1 251856Z 18012KT 35/11 A3001 RMK A01 T03500107  RH  023%=      5-min Rain = 0
KPD1 251857Z 19010KT 35/11 A3001 RMK A01 T03500105  RH  023%=      5-min Rain = 0
KPD1 251858Z 20008KT 35/11 A3001 RMK A01 T03500105  RH  023%=      5-min Rain = 0
KPD1 251859Z 17007KT 35/11 A3001 RMK A01 T03490106  RH  023%=      5-min Rain = 0
KPD1 251900Z 15010KT 35/11 A3001 RMK A01 T03490110  RH  023%=      5-min Rain = 0
KPD1 251901Z 16008G14KT 35/11 A3001 RMK A01 T03500107  RH  023%=      5-min Rain = 0
KPD1 251902Z 17008G13KT 35/11 A3001 RMK A01 T03500110  RH  023%=      5-min Rain = 0
KPD1 251903Z 18007KT 35/11 A3001 RMK A01 T03500109  RH  023%=      5-min Rain = 0
KPD1 251904Z 18005KT 35/11 A30 RMK A01 T03510107  RH  023%=      5-min Rain = 0
KPD1 251905Z 15006G11KT 35/11 A30 RMK A01 T03520106  RH  023%=      5-min Rain = 0
KPD1 251906Z 16013KT 35/11 A30 RMK A01 T03520108  RH  023%=      5-min Rain = 0
KPD1 251907Z 16011KT 35/10 A3001 RMK A01 T03530103  RH  022%=      5-min Rain = 0
KPD1 251908Z 17006KT 35/11 A30 RMK A01 T03510105  RH  022%=      5-min Rain = 0
KPD1 251909Z 16007KT 35/11 A30 RMK A01 T03510106  RH  023%=      5-min Rain = 0
KPD1 251910Z 16008G13KT 35/11 A30 RMK A01 T03520108  RH  023%=      5-min Rain = 0
KPD1 251911Z 16008G13KT 35/11 A30 RMK A01 T03540108  RH  023%=      5-min Rain = 0
KPD1 251912Z 16011KT 36/11 A30 RMK A01 T03550106  RH  022%=      5-min Rain = 0
KPD1 251913Z 17011G17KT 36/11 A30 RMK A01 T03560111  RH  023%=      5-min Rain = 0
KPD1 251914Z 18011G16KT 36/11 A3001 RMK A01 T03570105  RH  022%=      5-min Rain = 0
KPD1 251915Z 19010KT 36/10 A30 RMK A01 T03560101  RH  021%=      5-min Rain = 0
KPD1 251916Z 19008KT 35/10 A30 RMK A01 T03540104  RH  022%=      5-min Rain = 0
KPD1 251917Z 18009KT 36/11 A30 RMK A01 T03550108  RH  022%=      5-min Rain = 0
KPD1 251918Z 18011KT 36/11 A3001 RMK A01 T03580107  RH  022%=      5-min Rain = 0
KPD1 251919Z 17010G15KT 36/10 A30 RMK A01 T03560099  RH  021%=      5-min Rain = 0
KPD1 251920Z 19008KT 36/10 A30 RMK A01 T03550104  RH  022%=      5-min Rain = 0
KPD1 251921Z 18007KT 36/11 A30 RMK A01 T03570107  RH  022%=      5-min Rain = 0
KPD1 251922Z 19006KT 36/10 A30 RMK A01 T03610095  RH  020%=      5-min Rain = 0
KPD1 251923Z 17004KT 36/10 A30 RMK A01 T03590095  RH  020%=      5-min Rain = 0
KPD1 251924Z 16004KT 36/09 A30 RMK A01 T03590090  RH  019%=      5-min Rain = 0
KPD1 251925Z 16006KT 36/10 A30 RMK A01 T03590095  RH  020%=      5-min Rain = 0
KPD1 251926Z 13005KT 36/10 A30 RMK A01 T03630096  RH  020%=      5-min Rain = 0
KPD1 251927Z 14004KT 36/09 A30 RMK A01 T03640092  RH  019%=      5-min Rain = 0
KPD1 251928Z 17007G12KT 36/10 A30 RMK A01 T03630098  RH  020%=      5-min Rain = 0
KPD1 251929Z 17012KT 36/10 A30 RMK A01 T03640103  RH  021%=      5-min Rain = 0
KPD1 251930Z 16009KT 36/10 A30 RMK A01 T03640104  RH  021%=      5-min Rain = 0
KPD1 251931Z 17006G12KT 36/10 A30 RMK A01 T03620101  RH  020%=      5-min Rain = 0
KPD1 251932Z 13010KT 36/10 A30 RMK A01 T03610103  RH  021%=      5-min Rain = 0
KPD1 251933Z 14009KT 36/10 A30 RMK A01 T03610102  RH  021%=      5-min Rain = 0
KPD1 251934Z 15006KT 36/10 A30 RMK A01 T03620102  RH  021%=      5-min Rain = 0
KPD1 251935Z 16009KT 36/10 A30 RMK A01 T03630103  RH  021%=      5-min Rain = 0
KPD1 251936Z 16011KT 36/11 A30 RMK A01 T03630109  RH  021%=      5-min Rain = 0
KPD1 251937Z 17016KT 36/10 A30 RMK A01 T03640102  RH  020%=      5-min Rain = 0
KPD1 251938Z 17016KT 36/10 A30 RMK A01 T03600098  RH  020%=      5-min Rain = 0
KPD1 251939Z 17011KT 36/10 A30 RMK A01 T03570102  RH  021%=      5-min Rain = 0
KPD1 251940Z 16009KT 35/10 A30 RMK A01 T03540100  RH  021%=      5-min Rain = 0
KPD1 251941Z 18007G12KT 35/10 A30 RMK A01 T03510099  RH  022%=      5-min Rain = 0
KPD1 251942Z 20009KT 35/10 A30 RMK A01 T03480096  RH  022%=      5-min Rain = 0
KPD1 251943Z 21009KT 35/09 A30 RMK A01 T03450093  RH  021%=      5-min Rain = 0
KPD1 251944Z 21008KT 35/10 A30 RMK A01 T03450096  RH  022%=      5-min Rain = 0
KPD1 251945Z 21007KT 35/10 A30 RMK A01 T03470099  RH  022%=      5-min Rain = 0
KPD1 251946Z 19005KT 35/10 A30 RMK A01 T03490098  RH  022%=      5-min Rain = 0
KPD1 251947Z 17003G8KT 35/10 A2999 RMK A01 T03510102  RH  022%=      5-min Rain = 0
KPD1 251948Z 14005KT 35/10 A2999 RMK A01 T03520102  RH  022%=      5-min Rain = 0
KPD1 251949Z 16009G14KT 35/10 A2999 RMK A01 T03530098  RH  021%=      5-min Rain = 0
KPD1 251950Z 16012KT 35/09 A2999 RMK A01 T03510093  RH  021%=      5-min Rain = 0
KPD1 251951Z 16009KT 35/10 A2999 RMK A01 T03490095  RH  021%=      5-min Rain = 0
KPD1 251952Z 17009KT 35/10 A2999 RMK A01 T03500097  RH  021%=      5-min Rain = 0
KPD1 251953Z 17012KT 35/10 A2999 RMK A01 T03530101  RH  022%=      5-min Rain = 0
KPD1 251954Z 18011KT 36/10 A2999 RMK A01 T03550102  RH  022%=      5-min Rain = 0
KPD1 251955Z 18007KT 36/11 A2999 RMK A01 T03550106  RH  022%=      5-min Rain = 0
KPD1 251956Z 16009KT 36/11 A2999 RMK A01 T03580106  RH  022%=      5-min Rain = 0
KPD1 251957Z 15012KT 36/10 A2999 RMK A01 T03590102  RH  021%=      5-min Rain = 0
KPD1 251958Z 18011KT 36/11 A2999 RMK A01 T03590107  RH  022%=      5-min Rain = 0
KPD1 251959Z 18013KT 36/10 A2999 RMK A01 T03600101  RH  021%=      5-min Rain = 0
KPD1 252000Z 17011KT 36/10 A2999 RMK A01 T03590098  RH  020%=      5-min Rain = 0
KPD1 252001Z 17011KT 36/10 A2999 RMK A01 T03580098  RH  021%=      5-min Rain = 0
KPD1 252002Z 17009KT 36/10 A2999 RMK A01 T03590097  RH  020%=      5-min Rain = 0
KPD1 252003Z 17007KT 36/10 A2999 RMK A01 T03600103  RH  021%=      5-min Rain = 0
KPD1 252004Z 17011KT 36/10 A2999 RMK A01 T03620101  RH  021%=      5-min Rain = 0
KPD1 252005Z 18009KT 36/10 A2999 RMK A01 T03610096  RH  020%=      5-min Rain = 0
KPD1 252006Z 17007KT 36/10 A2998 RMK A01 T03590098  RH  021%=      5-min Rain = 0
KPD1 252007Z 16010G15KT 36/10 A2998 RMK A01 T03600099  RH  021%=      5-min Rain = 0
KPD1 252008Z 18011KT 36/10 A2998 RMK A01 T03610097  RH  020%=      5-min Rain = 0
KPD1 252009Z 18009KT 36/10 A2998 RMK A01 T03620103  RH  021%=      5-min Rain = 0
KPD1 252010Z 18010KT 37/11 A2998 RMK A01 T03650107  RH  021%=      5-min Rain = 0
KPD1 252011Z 17008KT 37/11 A2998 RMK A01 T03660105  RH  021%=      5-min Rain = 0
KPD1 252012Z 19011KT 37/11 A2998 RMK A01 T03660106  RH  021%=      5-min Rain = 0
KPD1 252013Z 18009KT 37/10 A2998 RMK A01 T03670104  RH  020%=      5-min Rain = 0
KPD1 252014Z 16009KT 37/10 A2998 RMK A01 T03670103  RH  020%=      5-min Rain = 0
KPD1 252015Z 16010KT 37/10 A2998 RMK A01 T03660101  RH  020%=      5-min Rain = 0
KPD1 252016Z 14010KT 37/10 A2998 RMK A01 T03650100  RH  020%=      5-min Rain = 0
KPD1 252017Z 16010KT 37/10 A2998 RMK A01 T03650098  RH  020%=      5-min Rain = 0
KPD1 252018Z 16011KT 36/10 A2998 RMK A01 T03640099  RH  020%=      5-min Rain = 0
KPD1 252019Z 14012G18KT 36/10 A2998 RMK A01 T03630095  RH  020%=      5-min Rain = 0
KPD1 252020Z 15009G14KT 36/09 A2998 RMK A01 T03620093  RH  020%=      5-min Rain = 0
KPD1 252021Z 15011KT 36/09 A2998 RMK A01 T03620092  RH  019%=      5-min Rain = 0
KPD1 252022Z 14011KT 36/09 A2998 RMK A01 T03590085  RH  019%=      5-min Rain = 0
KPD1 252023Z 15012KT 36/09 A2998 RMK A01 T03580085  RH  019%=      5-min Rain = 0
KPD1 252024Z 15010KT 36/09 A2998 RMK A01 T03580088  RH  019%=      5-min Rain = 0
KPD1 252025Z 14011KT 36/09 A2997 RMK A01 T03600090  RH  019%=      5-min Rain = 0
KPD1 252026Z 14011KT 36/09 A2997 RMK A01 T03620087  RH  019%=      5-min Rain = 0
KPD1 252027Z 14008G15KT 36/09 A2997 RMK A01 T03600086  RH  019%=      5-min Rain = 0
KPD1 252028Z 14010G15KT 36/08 A2997 RMK A01 T03560083  RH  019%=      5-min Rain = 0
KPD1 252029Z 13011G16KT 35/08 A2997 RMK A01 T03530084  RH  019%=      5-min Rain = 0
KPD1 252030Z 12009KT 35/08 A2997 RMK A01 T03510081  RH  019%=      5-min Rain = 0
KPD1 252031Z 14009KT 35/08 A2997 RMK A01 T03480081  RH  019%=      5-min Rain = 0
KPD1 252032Z 14009KT 35/08 A2997 RMK A01 T03450080  RH  020%=      5-min Rain = 0
KPD1 252033Z 14009KT 34/08 A2997 RMK A01 T03420080  RH  020%=      5-min Rain = 0
KPD1 252034Z 14007G13KT 34/08 A2997 RMK A01 T03400082  RH  020%=      5-min Rain = 0
KPD1 252035Z 13011KT 34/08 A2997 RMK A01 T03390083  RH  021%=      5-min Rain = 0
KPD1 252036Z 14011KT 34/08 A2997 RMK A01 T03380082  RH  021%=      5-min Rain = 0
KPD1 252037Z 14010KT 34/08 A2997 RMK A01 T03370080  RH  021%=      5-min Rain = 0
KPD1 252038Z 14010KT 34/08 A2997 RMK A01 T03350082  RH  021%=      5-min Rain = 0
KPD1 252039Z 14010KT 34/08 A2996 RMK A01 T03350084  RH  021%=      5-min Rain = 0
KPD1 252040Z 14012KT 34/09 A2996 RMK A01 T03360085  RH  021%=      5-min Rain = 0
KPD1 252041Z 14009KT 34/08 A2996 RMK A01 T03400083  RH  021%=      5-min Rain = 0
KPD1 252042Z 12012G17KT 35/09 A2996 RMK A01 T03460089  RH  021%=      5-min Rain = 0
KPD1 252043Z 14011G17KT 35/09 A2996 RMK A01 T03500087  RH  020%=      5-min Rain = 0
KPD1 252044Z 13013KT 35/09 A2996 RMK A01 T03530091  RH  020%=      5-min Rain = 0
KPD1 252045Z 13011KT 36/09 A2996 RMK A01 T03560089  RH  020%=      5-min Rain = 0
KPD1 252046Z 15013KT 36/09 A2996 RMK A01 T03570091  RH  020%=      5-min Rain = 0
KPD1 252047Z 15011G16KT 36/09 A2996 RMK A01 T03570092  RH  020%=      5-min Rain = 0
KPD1 252048Z 14009KT 36/10 A2996 RMK A01 T03560096  RH  021%=      5-min Rain = 0
KPD1 252049Z 14009KT 36/09 A2996 RMK A01 T03550094  RH  020%=      5-min Rain = 0
KPD1 252050Z 13011KT 35/09 A2995 RMK A01 T03540092  RH  020%=      5-min Rain = 0
KPD1 252051Z 14013KT 35/09 A2995 RMK A01 T03510089  RH  020%=      5-min Rain = 0
KPD1 252052Z 14014G19KT 35/09 A2995 RMK A01 T03480088  RH  020%=      5-min Rain = 0
KPD1 252053Z 13012G17KT 35/08 A2995 RMK A01 T03450083  RH  020%=      5-min Rain = 0
KPD1 252054Z 14012KT 35/09 A2995 RMK A01 T03460086  RH  020%=      5-min Rain = 0
KPD1 252055Z 14011G16KT 35/09 A2995 RMK A01 T03490092  RH  021%=      5-min Rain = 0
KPD1 252056Z 14013G20KT 35/09 A2995 RMK A01 T03530089  RH  020%=      5-min Rain = 0
KPD1 252057Z 14013KT 35/08 A2995 RMK A01 T03540083  RH  019%=      5-min Rain = 0
KPD1 252058Z 14008KT 35/08 A2995 RMK A01 T03520082  RH  019%=      5-min Rain = 0
KPD1 252059Z 15010G15KT 35/08 A2995 RMK A01 T03500084  RH  020%=      5-min Rain = 0
KPD1 252100Z 15012KT 35/08 A2995 RMK A01 T03470080  RH  019%=      5-min Rain = 0
KPD1 252101Z 16012KT 35/08 A2995 RMK A01 T03450077  RH  019%=      5-min Rain = 0
KPD1 252102Z 18011G16KT 34/08 A2995 RMK A01 T03440083  RH  020%=      5-min Rain = 0
KPD1 252103Z 17010KT 34/08 A2995 RMK A01 T03430079  RH  020%=      5-min Rain = 0
KPD1 252104Z 18009KT 34/08 A2995 RMK A01 T03410080  RH  020%=      5-min Rain = 0
KPD1 252105Z 17008KT 34/08 A2995 RMK A01 T03400082  RH  020%=      5-min Rain = 0
KPD1 252106Z 17012G21KT 34/08 A2995 RMK A01 T03400084  RH  021%=      5-min Rain = 0
KPD1 252107Z 17014G21KT 34/08 A2995 RMK A01 T03400076  RH  020%=      5-min Rain = 0
KPD1 252108Z 16015KT 34/08 A2995 RMK A01 T03390076  RH  020%=      5-min Rain = 0
KPD1 252109Z 17013G19KT 34/08 A2995 RMK A01 T03390077  RH  020%=      5-min Rain = 0
KPD1 252110Z 18013G18KT 34/08 A2995 RMK A01 T03400076  RH  020%=      5-min Rain = 0
KPD1 252111Z 18009G15KT 34/08 A2995 RMK A01 T03400078  RH  020%=      5-min Rain = 0
KPD1 252112Z 15007KT 34/08 A2995 RMK A01 T03410081  RH  020%=      5-min Rain = 0
KPD1 252113Z 16008KT 34/08 A2995 RMK A01 T03400081  RH  020%=      5-min Rain = 0
KPD1 252114Z 15008KT 34/08 A2995 RMK A01 T03390080  RH  020%=      5-min Rain = 0
KPD1 252115Z 14010KT 34/08 A2995 RMK A01 T03380080  RH  020%=      5-min Rain = 0
KPD1 252116Z 15009KT 34/08 A2995 RMK A01 T03380078  RH  020%=      5-min Rain = 0
KPD1 252117Z 15013KT 34/08 A2995 RMK A01 T03380076  RH  020%=      5-min Rain = 0
KPD1 252118Z 15013KT 34/08 A2995 RMK A01 T03380077  RH  020%=      5-min Rain = 0
KPD1 252119Z 15009KT 34/08 A2995 RMK A01 T03370079  RH  020%=      5-min Rain = 0
KPD1 252120Z 15008KT 34/08 A2995 RMK A01 T03380084  RH  021%=      5-min Rain = 0
KPD1 252121Z 16008KT 34/09 A2995 RMK A01 T03400085  RH  021%=      5-min Rain = 0
KPD1 252122Z 17008KT 34/09 A2995 RMK A01 T03410086  RH  021%=      5-min Rain = 0
KPD1 252123Z 16005KT 34/09 A2995 RMK A01 T03420087  RH  021%=      5-min Rain = 0
KPD1 252124Z 15005KT 34/09 A2995 RMK A01 T03420091  RH  022%=      5-min Rain = 0
KPD1 252125Z 15008KT 34/09 A2995 RMK A01 T03420092  RH  022%=      5-min Rain = 0
KPD1 252126Z 16008KT 34/09 A2995 RMK A01 T03410085  RH  021%=      5-min Rain = 0
KPD1 252127Z 17007KT 34/09 A2995 RMK A01 T03410089  RH  021%=      5-min Rain = 0
KPD1 252128Z 18006KT 34/09 A2995 RMK A01 T03400089  RH  021%=      5-min Rain = 0
KPD1 252129Z 19005KT 34/09 A2994 RMK A01 T03400089  RH  021%=      5-min Rain = 0
KPD1 252130Z 19006KT 34/08 A2994 RMK A01 T03400084  RH  021%=      5-min Rain = 0
KPD1 252131Z 19009KT 34/08 A2994 RMK A01 T03390075  RH  020%=      5-min Rain = 0
KPD1 252132Z 19008KT 34/07 A2995 RMK A01 T03390072  RH  019%=      5-min Rain = 0
KPD1 252133Z 19007KT 34/07 A2994 RMK A01 T03390074  RH  019%=      5-min Rain = 0
KPD1 252134Z 18009KT 34/07 A2994 RMK A01 T03380072  RH  019%=      5-min Rain = 0
KPD1 252135Z 19006G11KT 34/07 A2994 RMK A01 T03380074  RH  020%=      5-min Rain = 0
KPD1 252136Z 18011KT 34/08 A2995 RMK A01 T03380078  RH  020%=      5-min Rain = 0
KPD1 252137Z 17012KT 34/07 A2994 RMK A01 T03380072  RH  019%=      5-min Rain = 0
KPD1 252138Z 18011G16KT 34/07 A2994 RMK A01 T03380066  RH  019%=      5-min Rain = 0
KPD1 252139Z 18010G15KT 34/06 A2994 RMK A01 T03380063  RH  018%=      5-min Rain = 0
KPD1 252140Z 20010KT 34/06 A2994 RMK A01 T03370061  RH  018%=      5-min Rain = 0
KPD1 252141Z 19012KT 34/06 A2994 RMK A01 T03370060  RH  018%=      5-min Rain = 0
KPD1 252142Z 17009KT 34/06 A2994 RMK A01 T03370062  RH  018%=      5-min Rain = 0
KPD1 252143Z 17011G18KT 34/07 A2994 RMK A01 T03370065  RH  018%=      5-min Rain = 0
KPD1 252144Z 17013G19KT 34/07 A2994 RMK A01 T03370067  RH  019%=      5-min Rain = 0
KPD1 252145Z 17015KT 34/07 A2995 RMK A01 T03370072  RH  019%=      5-min Rain = 0
KPD1 252146Z 18009KT 34/08 A2994 RMK A01 T03370076  RH  020%=      5-min Rain = 0
KPD1 252147Z 17009G17KT 34/08 A2995 RMK A01 T03360081  RH  021%=      5-min Rain = 0
KPD1 252148Z 17011KT 34/08 A2995 RMK A01 T03350082  RH  021%=      5-min Rain = 0
KPD1 252149Z 16010KT 34/08 A2995 RMK A01 T03350081  RH  021%=      5-min Rain = 0
KPD1 252150Z 18010KT 33/08 A2995 RMK A01 T03340080  RH  021%=      5-min Rain = 0
KPD1 252151Z 18010KT 33/08 A2995 RMK A01 T03340081  RH  021%=      5-min Rain = 0
KPD1 252152Z 18007KT 33/08 A2995 RMK A01 T03330080  RH  021%=      5-min Rain = 0
KPD1 252153Z 19006KT 33/08 A2995 RMK A01 T03340080  RH  021%=      5-min Rain = 0
KPD1 252154Z 20004KT 33/08 A2995 RMK A01 T03340082  RH  021%=      5-min Rain = 0
KPD1 252155Z 20003KT 33/08 A2996 RMK A01 T03330083  RH  021%=      5-min Rain = 0
KPD1 252156Z 22002KT 33/08 A2996 RMK A01 T03330083  RH  021%=      5-min Rain = 0
KPD1 252157Z 24002KT 33/08 A2996 RMK A01 T03330084  RH  022%=      5-min Rain = 0
KPD1 252158Z 31002KT 33/09 A2996 RMK A01 T03330087  RH  022%=      5-min Rain = 0
KPD1 252159Z 31006KT 33/09 A2997 RMK A01 T03340089  RH  022%=      5-min Rain = 0
KPD1 252200Z 29008G14KT 33/08 A2997 RMK A01 T03330083  RH  021%=      5-min Rain = 0
KPD1 252201Z 03008KT 33/08 A2997 RMK A01 T03280077  RH  021%=      5-min Rain = 0
KPD1 252202Z 02008G14KT 32/08 A2997 RMK A01 T03230077  RH  022%=      5-min Rain = 0
KPD1 252203Z 03016G23KT 32/08 A2997 RMK A01 T03160076  RH  022%=      5-min Rain = 0
KPD1 252204Z 04016G24KT 31/08 A2997 RMK A01 T03090076  RH  023%=      5-min Rain = 0
KPD1 252205Z 04014G19KT 30/08 A2997 RMK A01 T03040078  RH  024%=      5-min Rain = 0
KPD1 252206Z 03014G19KT 30/08 A2997 RMK A01 T03000078  RH  025%=      5-min Rain = 0
KPD1 252207Z 03014G20KT 30/08 A2997 RMK A01 T02970079  RH  025%=      5-min Rain = 0
KPD1 252208Z 03012KT 29/08 A2998 RMK A01 T02940079  RH  026%=      5-min Rain = 0
KPD1 252209Z 04011G17KT 29/08 A2998 RMK A01 T02940082  RH  027%=      5-min Rain = 0
KPD1 252210Z 02011KT 29/08 A2998 RMK A01 T02930083  RH  027%=      5-min Rain = 0
KPD1 252211Z 04010KT 29/09 A2998 RMK A01 T02930086  RH  027%=      5-min Rain = 0
KPD1 252212Z 04011G17KT 29/09 A2998 RMK A01 T02930087  RH  028%=      5-min Rain = 0
KPD1 252213Z 05010G15KT 29/09 A2998 RMK A01 T02900089  RH  028%=      5-min Rain = 0
KPD1 252214Z 04012G19KT 29/09 A2998 RMK A01 T02880088  RH  029%=      5-min Rain = 0
KPD1 252215Z 04015G23KT 29/09 A2997 RMK A01 T02850086  RH  029%=      5-min Rain = 0
KPD1 252216Z 03011KT 28/08 A2997 RMK A01 T02830084  RH  029%=      5-min Rain = 0
KPD1 252217Z 04009G15KT 28/09 A2997 RMK A01 T02830085  RH  029%=      5-min Rain = 0
KPD1 252218Z 04009G15KT 28/09 A2997 RMK A01 T02830086  RH  029%=      5-min Rain = 0
KPD1 252219Z 02012G18KT 28/09 A2997 RMK A01 T02840086  RH  029%=      5-min Rain = 0
KPD1 252220Z 02011G18KT 29/09 A2997 RMK A01 T02860085  RH  028%=      5-min Rain = 0
KPD1 252221Z 03016G23KT 29/08 A2997 RMK A01 T02880084  RH  028%=      5-min Rain = 0
KPD1 252222Z 03017G27KT 29/08 A2997 RMK A01 T02870084  RH  028%=      5-min Rain = 0
KPD1 252223Z 03018G23KT 28/09 A2997 RMK A01 T02830088  RH  029%=      5-min Rain = 0
KPD1 252224Z 02018G27KT 28/09 A2997 RMK A01 T02760090  RH  031%=      5-min Rain = 0
KPD1 252225Z 03022G32KT 27/09 A2997 RMK A01 T02710094  RH  033%=      5-min Rain = 0
KPD1 252226Z 03018G25KT 27/10 A2997 RMK A01 T02670098  RH  034%=      5-min Rain = 0
KPD1 252227Z 04013G26KT 27/10 A2997 RMK A01 T02650099  RH  035%=      5-min Rain = 0
KPD1 252228Z 04013G22KT 26/10 A2997 RMK A01 T02630101  RH  036%=      5-min Rain = 0
KPD1 252229Z 03012KT 26/10 A2997 RMK A01 T02620101  RH  036%=      5-min Rain = 0
KPD1 252230Z 04012G17KT 26/10 A2997 RMK A01 T02610102  RH  037%=      5-min Rain = 0
KPD1 252231Z 04014G24KT 26/10 A2997 RMK A01 T02620102  RH  037%=      5-min Rain = 0
KPD1 252232Z 04021KT 26/10 A2997 RMK A01 T02620100  RH  036%=      5-min Rain = 0
KPD1 252233Z 03017G27KT 26/10 A2997 RMK A01 T02630101  RH  036%=      5-min Rain = 0
KPD1 252234Z 04018G26KT 26/10 A2997 RMK A01 T02620104  RH  037%=      5-min Rain = 0
KPD1 252235Z 03013G18KT 26/11 A2997 RMK A01 T02600105  RH  038%=      5-min Rain = 0
KPD1 252236Z 03010G15KT 26/11 A2997 RMK A01 T02590105  RH  038%=      5-min Rain = 0
KPD1 252237Z 03016G24KT 26/11 A2997 RMK A01 T02590105  RH  038%=      5-min Rain = 0
KPD1 252238Z 02015G20KT 26/10 A2997 RMK A01 T02600104  RH  038%=      5-min Rain = 0
KPD1 252239Z 03014G20KT 26/11 A2997 RMK A01 T02600105  RH  038%=      5-min Rain = 0
KPD1 252240Z 04013G22KT 26/10 A2996 RMK A01 T02610102  RH  037%=      5-min Rain = 0
KPD1 252241Z 04017G24KT 26/10 A2997 RMK A01 T02620100  RH  036%=      5-min Rain = 0
KPD1 252242Z 04018G27KT 26/10 A2997 RMK A01 T02640098  RH  035%=      5-min Rain = 0
KPD1 252243Z 04012G17KT 27/10 A2997 RMK A01 T02650098  RH  035%=      5-min Rain = 0
KPD1 252244Z 04011G18KT 27/10 A2997 RMK A01 T02660100  RH  035%=      5-min Rain = 0
KPD1 252245Z 05008G13KT 27/10 A2996 RMK A01 T02660101  RH  035%=      5-min Rain = 0
KPD1 252246Z 04013KT 27/10 A2996 RMK A01 T02670101  RH  035%=      5-min Rain = 0
KPD1 252247Z 04014G23KT 27/10 A2996 RMK A01 T02670100  RH  035%=      5-min Rain = 0
KPD1 252248Z 04013G22KT 27/10 A2996 RMK A01 T02670099  RH  035%=      5-min Rain = 0
KPD1 252249Z 05011G16KT 27/10 A2995 RMK A01 T02670100  RH  035%=      5-min Rain = 0
KPD1 252250Z 04011G19KT 27/10 A2995 RMK A01 T02680100  RH  035%=      5-min Rain = 0
KPD1 252251Z 05018G26KT 27/10 A2995 RMK A01 T02680097  RH  034%=      5-min Rain = 0
KPD1 252252Z 05016G26KT 27/10 A2995 RMK A01 T02670095  RH  034%=      5-min Rain = 0
KPD1 252253Z 05016G27KT 27/10 A2995 RMK A01 T02660096  RH  034%=      5-min Rain = 0
KPD1 252254Z 06013G23KT 27/10 A2995 RMK A01 T02680098  RH  035%=      5-min Rain = 0
KPD1 252255Z 06014G25KT 27/10 A2995 RMK A01 T02710099  RH  034%=      5-min Rain = 0
KPD1 252256Z 06020G29KT 27/10 A2995 RMK A01 T02720100  RH  034%=      5-min Rain = 0
KPD1 252257Z 06023G31KT 27/10 A2995 RMK A01 T02730100  RH  034%=      5-min Rain = 0
KPD1 252258Z 07025G34KT 27/10 A2995 RMK A01 T02720101  RH  034%=      5-min Rain = 0
KPD1 252259Z 06022G30KT 27/10 A2995 RMK A01 T02670104  RH  036%=      5-min Rain = 0
KPD1 252300Z 07016G26KT 26/11 A2995 RMK A01 T02610108  RH  038%=      5-min Rain = 0
KPD1 252301Z 07014G19KT 26/11 A2996 RMK A01 T02600112  RH  040%=      5-min Rain = 0
KPD1 252302Z 07023G35KT 26/11 A2996 RMK A01 T02580114  RH  040%=      5-min Rain = 0
KPD1 252303Z 07019G27KT 25/11 A2996 RMK A01 T02520112  RH  041%=      5-min Rain = 0
KPD1 252304Z 07013G19KT 25/11 A2996 RMK A01 T02500113  RH  042%=      5-min Rain = 0
KPD1 252305Z 07014G24KT 25/11 A2996 RMK A01 T02490113  RH  042%=      5-min Rain = 0
KPD1 252306Z 07016G28KT 25/11 A2996 RMK A01 T02510114  RH  042%=      5-min Rain = 0
KPD1 252307Z 07016G23KT 25/11 A2996 RMK A01 T02530110  RH  041%=      5-min Rain = 0
KPD1 252308Z 08015G20KT 25/11 A2996 RMK A01 T02520110  RH  041%=      5-min Rain = 0
KPD1 252309Z 06019G27KT 25/11 A2996 RMK A01 T02510109  RH  041%=      5-min Rain = 0
KPD1 252310Z 08021G31KT 25/11 A2996 RMK A01 T02470107  RH  041%=      5-min Rain = 0
KPD1 252311Z 08017G28KT 25/11 A2996 RMK A01 T02450108  RH  042%=      5-min Rain = 0
KPD1 252312Z 08016G27KT 24/11 A2996 RMK A01 T02440110  RH  043%=      5-min Rain = 0
KPD1 252313Z 08015G24KT 24/11 A2995 RMK A01 T02430110  RH  043%=      5-min Rain = 0
KPD1 252314Z 07016G25KT 24/11 A2995 RMK A01 T02420109  RH  043%=      5-min Rain = 0
KPD1 252315Z 07015G22KT 24/11 A2994 RMK A01 T02420109  RH  043%=      5-min Rain = 0
KPD1 252316Z 06018G25KT 24/11 A2994 RMK A01 T02420109  RH  043%=      5-min Rain = 0
KPD1 252317Z 06015G24KT 24/11 A2994 RMK A01 T02420110  RH  043%=      5-min Rain = 0
KPD1 252318Z 08013G19KT 24/11 A2994 RMK A01 T02420110  RH  043%=      5-min Rain = 0
KPD1 252319Z 07011G19KT 24/11 A2994 RMK A01 T02420111  RH  044%=      5-min Rain = 0
KPD1 252320Z 07011G20KT 24/11 A2994 RMK A01 T02420113  RH  044%=      5-min Rain = 0
KPD1 252321Z 07010KT 24/11 A2994 RMK A01 T02420112  RH  044%=      5-min Rain = 0
KPD1 252322Z 07011G16KT 24/11 A2994 RMK A01 T02420113  RH  044%=      5-min Rain = 0
KPD1 252323Z 08015G22KT 24/11 A2994 RMK A01 T02430113  RH  044%=      5-min Rain = 0
KPD1 252324Z 07012KT 24/12 A2995 RMK A01 T02430115  RH  045%=      5-min Rain = 0
KPD1 252325Z 07012G19KT 24/12 A2995 RMK A01 T02420118  RH  046%=      5-min Rain = 0
KPD1 252326Z 06014G21KT 24/12 A2995 RMK A01 T02400119  RH  047%=      5-min Rain = 0
KPD1 252327Z 07009G14KT 24/12 A2996 RMK A01 T02380121  RH  048%=      5-min Rain = 0
KPD1 252328Z 07011G16KT 24/12 A2996 RMK A01 T02370122  RH  049%=      5-min Rain = 0
KPD1 252329Z 08016G22KT 24/12 A2996 RMK A01 T02360123  RH  049%=      5-min Rain = 0
KPD1 252330Z 08020G25KT 23/12 A2997 RMK A01 T02340123  RH  050%=      5-min Rain = 0
KPD1 252331Z 08015G23KT 23/12 A2997 RMK A01 T02320124  RH  051%=      5-min Rain = 0
KPD1 252332Z 07014G24KT 23/13 A2997 RMK A01 T02300126  RH  052%=      5-min Rain = 0
KPD1 252333Z 08016G33KT 23/13 A2998 RMK A01 T02280128  RH  053%=      5-min Rain = 0
KPD1 252334Z 08020G26KT 23/13 A2998 RMK A01 T02260128  RH  054%=      5-min Rain = 0
KPD1 252335Z 09019G29KT 22/13 A2998 RMK A01 T02220128  RH  055%=      5-min Rain = 0
KPD1 252336Z 10015G24KT 22/13 A2998 RMK A01 T02210128  RH  056%=      5-min Rain = 0
KPD1 252337Z 09012G20KT 22/13 A2999 RMK A01 T02200129  RH  056%=      5-min Rain = 0
KPD1 252338Z 10012G23KT 22/13 A2999 RMK A01 T02200130  RH  056%=      5-min Rain = 0
KPD1 252339Z 10012G19KT 22/13 A2999 RMK A01 T02200129  RH  056%=      5-min Rain = 0
KPD1 252340Z 11013G19KT 22/13 A30 RMK A01 T02210129  RH  056%=      5-min Rain = 0
KPD1 252341Z 10016G26KT 22/13 A30 RMK A01 T02210128  RH  055%=      5-min Rain = 0
KPD1 252342Z 11017G29KT 22/13 A30 RMK A01 T02190126  RH  055%=      5-min Rain = 0
KPD1 252343Z 10015KT 22/13 A30 RMK A01 T02180126  RH  056%=      5-min Rain = 0
KPD1 252344Z 11015G26KT 22/13 A30 RMK A01 T02180127  RH  056%=      5-min Rain = 0
KPD1 252345Z 10020G27KT 22/13 A30 RMK A01 T02180126  RH  056%=      5-min Rain = 0
KPD1 252346Z 10014G21KT 22/13 A30 RMK A01 T02180125  RH  056%=      5-min Rain = 0
KPD1 252347Z 09012G19KT 22/12 A30 RMK A01 T02170124  RH  056%=      5-min Rain = 0
KPD1 252348Z 08018G24KT 22/12 A30 RMK A01 T02180123  RH  055%=      5-min Rain = 0
KPD1 252349Z 10014G22KT 22/12 A30 RMK A01 T02180121  RH  054%=      5-min Rain = 0
KPD1 252350Z 10011G19KT 22/12 A30 RMK A01 T02180121  RH  054%=      5-min Rain = 0
KPD1 252351Z 09014G19KT 22/12 A3001 RMK A01 T02190121  RH  054%=      5-min Rain = 0
KPD1 252352Z 11012G20KT 22/12 A3001 RMK A01 T02190122  RH  054%=      5-min Rain = 0
KPD1 252353Z 12010G17KT 22/12 A3001 RMK A01 T02180123  RH  055%=      5-min Rain = 0
KPD1 252354Z 12009KT 22/12 A3001 RMK A01 T02180124  RH  055%=      5-min Rain = 0
KPD1 252355Z 10011G17KT 22/12 A3001 RMK A01 T02170123  RH  055%=      5-min Rain = 0
KPD1 252356Z 12010G15KT 22/12 A3001 RMK A01 T02170122  RH  055%=      5-min Rain = 0
KPD1 252357Z 12011G25KT 22/12 A3001 RMK A01 T02180122  RH  055%=      5-min Rain = 0
KPD1 252358Z 15009G20KT 22/12 A3001 RMK A01 T02200122  RH  054%=      5-min Rain = 0
KPD1 252359Z 16012G17KT 22/12 A3002 RMK A01 T02220123  RH  053%=      5-min Rain = 0
KPD1 260000Z 15018KT 23/13 A3002 RMK A01 T02260126  RH  053%=      5-min Rain = 0
KPD1 260001Z 15016G23KT 23/13 A3003 RMK A01 T02280128  RH  053%=      5-min Rain = 0
KPD1 260002Z 15016KT 23/13 A3003 RMK A01 T02270129  RH  054%=      5-min Rain = 0
KPD1 260003Z 15016G22KT 23/13 A3002 RMK A01 T02260133  RH  055%=      5-min Rain = 0
KPD1 260004Z 15015KT 22/14 A3002 RMK A01 T02240136  RH  057%=      5-min Rain = 0
KPD1 260005Z 13010G16KT 22/14 A3001 RMK A01 T02220136  RH  058%=      5-min Rain = 0
KPD1 260006Z 10007KT 22/14 A3001 RMK A01 T02200136  RH  059%=      5-min Rain = 0
KPD1 260007Z 11009G16KT 22/13 A30 RMK A01 T02190133  RH  058%=      5-min Rain = 0
KPD1 260008Z 12010G15KT 22/13 A30 RMK A01 T02190131  RH  057%=      5-min Rain = 0
KPD1 260009Z 11013G19KT 22/13 A30 RMK A01 T02180127  RH  056%=      5-min Rain = 0
KPD1 260010Z 11010G18KT 22/13 A30 RMK A01 T02190125  RH  055%=      5-min Rain = 0
KPD1 260011Z 10007KT 22/13 A30 RMK A01 T02200126  RH  055%=      5-min Rain = 0
KPD1 260012Z 18004G10KT 22/13 A30 RMK A01 T02200127  RH  055%=      5-min Rain = 0
KPD1 260013Z 20002KT 22/13 A30 RMK A01 T02210128  RH  055%=      5-min Rain = 0
KPD1 260014Z 12004KT 22/13 A3001 RMK A01 T02230128  RH  055%=      5-min Rain = 0
KPD1 260015Z 10010G16KT 22/13 A3001 RMK A01 T02240127  RH  054%=      5-min Rain = 0
KPD1 260016Z 15006KT 23/13 A3001 RMK A01 T02250126  RH  054%=      5-min Rain = 0
KPD1 260017Z 15010KT 23/13 A3001 RMK A01 T02260128  RH  054%=      5-min Rain = 0
KPD1 260018Z 11011KT 23/13 A3001 RMK A01 T02260127  RH  053%=      5-min Rain = 0
KPD1 260019Z 11011G16KT 22/13 A3001 RMK A01 T02230125  RH  054%=      5-min Rain = 0
KPD1 260020Z 10014G20KT 22/12 A3001 RMK A01 T02190123  RH  055%=      5-min Rain = 0
KPD1 260021Z 12011KT 22/12 A3001 RMK A01 T02150123  RH  056%=      5-min Rain = 0
KPD1 260022Z 11009G17KT 21/12 A3001 RMK A01 T02130124  RH  057%=      5-min Rain = 0
KPD1 260023Z 13013G18KT 21/12 A3001 RMK A01 T02120123  RH  057%=      5-min Rain = 0
KPD1 260024Z 13012G19KT 21/12 A3001 RMK A01 T02110121  RH  056%=      5-min Rain = 0
KPD1 260025Z 13006G14KT 21/12 A3001 RMK A01 T02110121  RH  056%=      5-min Rain = 0
KPD1 260026Z 12006KT 21/12 A3001 RMK A01 T02110122  RH  057%=      5-min Rain = 0
KPD1 260027Z 17007KT 21/12 A3001 RMK A01 T02120123  RH  057%=      5-min Rain = 0
KPD1 260028Z 16007KT 21/12 A3001 RMK A01 T02130124  RH  057%=      5-min Rain = 0
KPD1 260029Z 16008KT 21/13 A3001 RMK A01 T02140127  RH  057%=      5-min Rain = 0
KPD1 260030Z 14006KT 22/13 A3001 RMK A01 T02160127  RH  057%=      5-min Rain = 0
KPD1 260031Z 14008KT 22/13 A3002 RMK A01 T02170129  RH  057%=      5-min Rain = 0
KPD1 260032Z 14011G18KT 22/13 A3001 RMK A01 T02180129  RH  057%=      5-min Rain = 0
KPD1 260033Z 13011G16KT 22/13 A3001 RMK A01 T02180128  RH  057%=      5-min Rain = 0
KPD1 260034Z 11009KT 22/13 A3001 RMK A01 T02180128  RH  056%=      5-min Rain = 0
KPD1 260035Z 13005KT 22/13 A3001 RMK A01 T02180128  RH  056%=      5-min Rain = 0
KPD1 260036Z 12006KT 22/13 A3001 RMK A01 T02180129  RH  057%=      5-min Rain = 0
KPD1 260037Z 13010G16KT 22/13 A3002 RMK A01 T02190129  RH  056%=      5-min Rain = 0
KPD1 260038Z 13009G18KT 22/13 A3002 RMK A01 T02190126  RH  056%=      5-min Rain = 0
KPD1 260039Z 12016KT 22/13 A3002 RMK A01 T02190126  RH  055%=      5-min Rain = 0
KPD1 260040Z 14013G18KT 22/13 A3002 RMK A01 T02190126  RH  056%=      5-min Rain = 0
KPD1 260041Z 15013G18KT 22/13 A3002 RMK A01 T02180127  RH  056%=      5-min Rain = 0
KPD1 260042Z 14017G25KT 22/13 A3003 RMK A01 T02170127  RH  056%=      5-min Rain = 0
KPD1 260043Z 14014KT 22/13 A3003 RMK A01 T02170127  RH  057%=      5-min Rain = 0
KPD1 260044Z 15013G18KT 22/13 A3003 RMK A01 T02170128  RH  057%=      5-min Rain = 0
KPD1 260045Z 14013KT 22/13 A3003 RMK A01 T02170129  RH  057%=      5-min Rain = 0
KPD1 260046Z 14016G21KT 22/13 A3003 RMK A01 T02160129  RH  058%=      5-min Rain = 0
KPD1 260047Z 14013G19KT 21/13 A3003 RMK A01 T02140129  RH  058%=      5-min Rain = 0
KPD1 260048Z 15015KT 21/13 A3003 RMK A01 T02130129  RH  059%=      5-min Rain = 0
KPD1 260049Z 15013KT 21/13 A3004 RMK A01 T02110129  RH  059%=      5-min Rain = 0
KPD1 260050Z 15012KT 21/13 A3004 RMK A01 T02100129  RH  060%=      5-min Rain = 0
KPD1 260051Z 15014KT 21/13 A3004 RMK A01 T02090129  RH  060%=      5-min Rain = 0
KPD1 260052Z 15011G16KT 21/13 A3004 RMK A01 T02080129  RH  060%=      5-min Rain = 0
KPD1 260053Z 15011KT 21/13 A3004 RMK A01 T02060129  RH  061%=      5-min Rain = 0
KPD1 260054Z 15009KT 21/13 A3004 RMK A01 T02060130  RH  062%=      5-min Rain = 0
KPD1 260055Z 14007KT 21/13 A3004 RMK A01 T02050130  RH  062%=      5-min Rain = 0
KPD1 260056Z 15009KT 20/13 A3004 RMK A01 T02040130  RH  063%=      5-min Rain = 0
KPD1 260057Z 16008G14KT 20/13 A3004 RMK A01 T02030132  RH  064%=      5-min Rain = 0
KPD1 260058Z 15009KT 20/13 A3004 RMK A01 T02030132  RH  064%=      5-min Rain = 0
KPD1 260059Z 17015G20KT 20/13 A3005 RMK A01 T02020131  RH  064%=      5-min Rain = 0
KPD1 260100Z 17016G22KT 20/13 A3005 RMK A01 T02010132  RH  064%=      5-min Rain = 0
KPD1 260101Z 17016KT 20/13 A3005 RMK A01 T01990132  RH  065%=      5-min Rain = 0
KPD1 260102Z 16013KT 20/13 A3005 RMK A01 T01980131  RH  066%=      5-min Rain = 0
KPD1 260103Z 15013G20KT 20/13 A3005 RMK A01 T01970131  RH  066%=      5-min Rain = 0
KPD1 260104Z 15011G16KT 20/13 A3005 RMK A01 T01960130  RH  066%=      5-min Rain = 0
KPD1 260105Z 15013KT 20/13 A3005 RMK A01 T01960130  RH  065%=      5-min Rain = 0
KPD1 260106Z 16016G21KT 20/13 A3005 RMK A01 T01960128  RH  065%=      5-min Rain = 0
KPD1 260107Z 16012KT 20/13 A3005 RMK A01 T01970128  RH  064%=      5-min Rain = 0
KPD1 260108Z 15011KT 20/13 A3005 RMK A01 T01970128  RH  064%=      5-min Rain = 0
KPD1 260109Z 15010KT 20/13 A3005 RMK A01 T01970128  RH  064%=      5-min Rain = 0
KPD1 260110Z 16011KT 20/13 A3005 RMK A01 T01970128  RH  064%=      5-min Rain = 0
KPD1 260111Z 16012KT 20/13 A3005 RMK A01 T01970129  RH  065%=      5-min Rain = 0
KPD1 260112Z 16010KT 20/13 A3005 RMK A01 T01970129  RH  065%=      5-min Rain = 0
KPD1 260113Z 15008KT 20/13 A3005 RMK A01 T01960129  RH  065%=      5-min Rain = 0
KPD1 260114Z 16008KT 20/13 A3005 RMK A01 T01960129  RH  065%=      5-min Rain = 0
KPD1 260115Z 14008KT 20/13 A3005 RMK A01 T01960129  RH  065%=      5-min Rain = 0
KPD1 260116Z 13006KT 20/13 A3005 RMK A01 T01950128  RH  065%=      5-min Rain = 0
KPD1 260117Z 14008KT 20/13 A3004 RMK A01 T01950129  RH  065%=      5-min Rain = 0
KPD1 260118Z 14009G15KT 20/13 A3005 RMK A01 T01950128  RH  065%=      5-min Rain = 0
KPD1 260119Z 13008KT 20/13 A3005 RMK A01 T01950127  RH  065%=      5-min Rain = 0
KPD1 260120Z 14007KT 20/13 A3005 RMK A01 T01950127  RH  065%=      5-min Rain = 0
KPD1 260121Z 14007KT 20/13 A3005 RMK A01 T01960128  RH  065%=      5-min Rain = 0
KPD1 260122Z 15006KT 20/13 A3006 RMK A01 T01960128  RH  065%=      5-min Rain = 0
KPD1 260123Z 16006KT 20/13 A3006 RMK A01 T01970129  RH  065%=      5-min Rain = 0
KPD1 260124Z 16006KT 20/13 A3006 RMK A01 T01970129  RH  065%=      5-min Rain = 0
KPD1 260125Z 18009G14KT 20/13 A3007 RMK A01 T01980128  RH  064%=      5-min Rain = 0
KPD1 260126Z 16011KT 20/13 A3007 RMK A01 T01990128  RH  064%=      5-min Rain = 0
KPD1 260127Z 17011KT 20/13 A3007 RMK A01 T01990128  RH  063%=      5-min Rain = 0
KPD1 260128Z 17011KT 20/13 A3007 RMK A01 T01990128  RH  063%=      5-min Rain = 0
KPD1 260129Z 18012KT 20/13 A3007 RMK A01 T02000128  RH  063%=      5-min Rain = 0
KPD1 260130Z 18012KT 20/13 A3007 RMK A01 T02000128  RH  063%=      5-min Rain = 0
KPD1 260131Z 16008KT 20/13 A3007 RMK A01 T02000127  RH  063%=      5-min Rain = 0
KPD1 260132Z 15008KT 20/13 A3007 RMK A01 T02000127  RH  063%=      5-min Rain = 0
KPD1 260133Z 14009KT 20/13 A3006 RMK A01 T02000126  RH  062%=      5-min Rain = 0
KPD1 260134Z 13010KT 20/13 A3006 RMK A01 T02000126  RH  062%=      5-min Rain = 0
KPD1 260135Z 14012KT 20/12 A3006 RMK A01 T02000124  RH  062%=      5-min Rain = 0
KPD1 260136Z 13011KT 20/12 A3006 RMK A01 T02000123  RH  061%=      5-min Rain = 0
KPD1 260137Z 14010KT 20/12 A3006 RMK A01 T01990124  RH  062%=      5-min Rain = 0
KPD1 260138Z 13010G16KT 20/12 A3006 RMK A01 T01980124  RH  062%=      5-min Rain = 0
KPD1 260139Z 12012KT 20/12 A3006 RMK A01 T01980124  RH  062%=      5-min Rain = 0
KPD1 260140Z 13010KT 20/12 A3005 RMK A01 T01980124  RH  062%=      5-min Rain = 0
KPD1 260141Z 13007KT 20/12 A3005 RMK A01 T01980124  RH  062%=      5-min Rain = 0
KPD1 260142Z 13008G13KT 20/12 A3006 RMK A01 T01970124  RH  062%=      5-min Rain = 0
KPD1 260143Z 13009KT 20/12 A3006 RMK A01 T01970124  RH  063%=      5-min Rain = 0
KPD1 260144Z 14009G15KT 20/13 A3006 RMK A01 T01980125  RH  063%=      5-min Rain = 0
KPD1 260145Z 13008KT 20/13 A3006 RMK A01 T01970125  RH  063%=      5-min Rain = 0
KPD1 260146Z 15010KT 20/13 A3006 RMK A01 T01970125  RH  063%=      5-min Rain = 0
KPD1 260147Z 15011KT 20/13 A3007 RMK A01 T01970125  RH  063%=      5-min Rain = 0
KPD1 260148Z 14010KT 20/13 A3007 RMK A01 T01970125  RH  063%=      5-min Rain = 0
KPD1 260149Z 14010KT 20/12 A3006 RMK A01 T01970124  RH  063%=      5-min Rain = 0
KPD1 260150Z 15008KT 20/12 A3006 RMK A01 T01980124  RH  063%=      5-min Rain = 0
KPD1 260151Z 14010KT 20/12 A3007 RMK A01 T01980124  RH  062%=      5-min Rain = 0
KPD1 260152Z 15009G15KT 20/12 A3007 RMK A01 T01980124  RH  062%=      5-min Rain = 0
KPD1 260153Z 15009G14KT 20/12 A3007 RMK A01 T01980124  RH  062%=      5-min Rain = 0
KPD1 260154Z 13008KT 20/13 A3007 RMK A01 T01980125  RH  063%=      5-min Rain = 0
KPD1 260155Z 14008G15KT 20/13 A3006 RMK A01 T01980126  RH  063%=      5-min Rain = 0
KPD1 260156Z 14009G15KT 20/13 A3006 RMK A01 T01970127  RH  064%=      5-min Rain = 0
KPD1 260157Z 14009KT 20/13 A3006 RMK A01 T01960128  RH  064%=      5-min Rain = 0
KPD1 260158Z 15012G17KT 20/13 A3006 RMK A01 T01950128  RH  065%=      5-min Rain = 0
KPD1 260159Z 14012KT 19/13 A3006 RMK A01 T01940127  RH  065%=      5-min Rain = 0
KPD1 260200Z 14008KT 19/13 A3006 RMK A01 T01940128  RH  066%=      5-min Rain = 0
KPD1 260201Z 14009KT 19/13 A3006 RMK A01 T01930128  RH  066%=      5-min Rain = 0
KPD1 260202Z 14007KT 19/13 A3006 RMK A01 T01930127  RH  066%=      5-min Rain = 0
KPD1 260203Z 14005KT 19/13 A3006 RMK A01 T01930127  RH  065%=      5-min Rain = 0
KPD1 260204Z 14005KT 19/13 A3006 RMK A01 T01930127  RH  065%=      5-min Rain = 0
KPD1 260205Z 16007KT 19/13 A3006 RMK A01 T01930127  RH  066%=      5-min Rain = 0
KPD1 260206Z 16007KT 19/13 A3006 RMK A01 T01930128  RH  066%=      5-min Rain = 0
KPD1 260207Z 16007KT 19/13 A3006 RMK A01 T01920128  RH  066%=      5-min Rain = 0
KPD1 260208Z 16008KT 19/13 A3006 RMK A01 T01920128  RH  067%=      5-min Rain = 0
KPD1 260209Z 17008KT 19/13 A3006 RMK A01 T01910128  RH  067%=      5-min Rain = 0
KPD1 260210Z 17006KT 19/13 A3006 RMK A01 T01910129  RH  067%=      5-min Rain = 0
KPD1 260211Z 17007KT 19/13 A3006 RMK A01 T01910129  RH  067%=      5-min Rain = 0
KPD1 260212Z 16004KT 19/13 A3006 RMK A01 T01900129  RH  067%=      5-min Rain = 0
KPD1 260213Z 15004G9KT 19/13 A3006 RMK A01 T01900129  RH  068%=      5-min Rain = 0
KPD1 260214Z 15008KT 19/13 A3006 RMK A01 T01900129  RH  067%=      5-min Rain = 0
KPD1 260215Z 14007KT 19/13 A3005 RMK A01 T01900128  RH  067%=      5-min Rain = 0
KPD1 260216Z 15007KT 19/13 A3005 RMK A01 T01910129  RH  067%=      5-min Rain = 0
KPD1 260217Z 15008KT 19/13 A3005 RMK A01 T01900128  RH  067%=      5-min Rain = 0
KPD1 260218Z 15007KT 19/13 A3005 RMK A01 T01900127  RH  067%=      5-min Rain = 0
KPD1 260219Z 15008KT 19/13 A3005 RMK A01 T01900127  RH  067%=      5-min Rain = 0
KPD1 260220Z 16010KT 19/13 A3005 RMK A01 T01900127  RH  067%=      5-min Rain = 0
KPD1 260221Z 16006KT 19/13 A3005 RMK A01 T01900127  RH  067%=      5-min Rain = 0
KPD1 260222Z 16006KT 19/13 A3005 RMK A01 T01900127  RH  067%=      5-min Rain = 0
KPD1 260223Z 15006KT 19/13 A3005 RMK A01 T01900127  RH  067%=      5-min Rain = 0
KPD1 260224Z 16008KT 19/13 A3005 RMK A01 T01900127  RH  067%=      5-min Rain = 0
KPD1 260225Z 16008KT 19/13 A3005 RMK A01 T01900126  RH  067%=      5-min Rain = 0
KPD1 260226Z 17006KT 19/13 A3005 RMK A01 T01900126  RH  067%=      5-min Rain = 0
KPD1 260227Z 16005KT 19/13 A3005 RMK A01 T01900127  RH  067%=      5-min Rain = 0
KPD1 260228Z 17005KT 19/13 A3005 RMK A01 T01900127  RH  067%=      5-min Rain = 0
KPD1 260229Z 16004KT 19/13 A3005 RMK A01 T01900127  RH  067%=      5-min Rain = 0
KPD1 260230Z 16006KT 19/13 A3006 RMK A01 T01900127  RH  067%=      5-min Rain = 0
KPD1 260231Z 14005KT 19/13 A3006 RMK A01 T01900127  RH  067%=      5-min Rain = 0
KPD1 260232Z 13003KT 19/13 A3005 RMK A01 T01900127  RH  067%=      5-min Rain = 0
KPD1 260233Z 13003KT 19/13 A3005 RMK A01 T01900126  RH  066%=      5-min Rain = 0
KPD1 260234Z 13005KT 19/13 A3006 RMK A01 T01900126  RH  066%=      5-min Rain = 0
KPD1 260235Z 13004KT 19/13 A3006 RMK A01 T01900125  RH  066%=      5-min Rain = 0
KPD1 260236Z 15004KT 19/13 A3006 RMK A01 T01920126  RH  066%=      5-min Rain = 0
KPD1 260237Z 16004KT 19/13 A3007 RMK A01 T01910126  RH  066%=      5-min Rain = 0
KPD1 260238Z 15004KT 19/13 A3007 RMK A01 T01910126  RH  066%=      5-min Rain = 0
KPD1 260239Z 16003KT 19/13 A3007 RMK A01 T01910126  RH  066%=      5-min Rain = 0
KPD1 260240Z 12002KT 19/13 A3007 RMK A01 T01920126  RH  066%=      5-min Rain = 0
KPD1 260241Z 12002KT 19/13 A3007 RMK A01 T01910126  RH  066%=      5-min Rain = 0
KPD1 260242Z 10001KT 19/13 A3007 RMK A01 T01910126  RH  066%=      5-min Rain = 0
KPD1 260243Z 05002KT 19/13 A3007 RMK A01 T01910127  RH  066%=      5-min Rain = 0
KPD1 260244Z 05003KT 19/13 A3007 RMK A01 T01910127  RH  066%=      5-min Rain = 0
KPD1 260245Z 02003KT 19/13 A3007 RMK A01 T01920127  RH  066%=      5-min Rain = 0
KPD1 260246Z 06003KT 19/13 A3007 RMK A01 T01920126  RH  066%=      5-min Rain = 0
KPD1 260247Z 07003KT 19/13 A3007 RMK A01 T01920126  RH  066%=      5-min Rain = 0
KPD1 260248Z 04002KT 19/13 A3007 RMK A01 T01930126  RH  065%=      5-min Rain = 0
KPD1 260249Z 05003KT 19/13 A3007 RMK A01 T01930125  RH  065%=      5-min Rain = 0
KPD1 260250Z 08003KT 19/12 A3007 RMK A01 T01940124  RH  064%=      5-min Rain = 0
KPD1 260251Z 09005KT 20/12 A3007 RMK A01 T01950123  RH  063%=      5-min Rain = 0
KPD1 260252Z 10004KT 20/12 A3008 RMK A01 T01960123  RH  062%=      5-min Rain = 0
KPD1 260253Z 10005KT 20/12 A3008 RMK A01 T01970123  RH  062%=      5-min Rain = 0
KPD1 260254Z 09004KT 20/12 A3008 RMK A01 T01970124  RH  062%=      5-min Rain = 0
KPD1 260255Z 09006KT 20/12 A3008 RMK A01 T01980124  RH  062%=      5-min Rain = 0
KPD1 260256Z 11005KT 20/12 A3008 RMK A01 T01980122  RH  062%=      5-min Rain = 0
KPD1 260257Z 11002KT 20/12 A3009 RMK A01 T01980121  RH  061%=      5-min Rain = 0
KPD1 260258Z 11005KT 20/12 A3009 RMK A01 T01990122  RH  061%=      5-min Rain = 0
KPD1 260259Z 11003KT 20/12 A3009 RMK A01 T01990122  RH  061%=      5-min Rain = 0
KPD1 260300Z 12004KT 20/12 A3009 RMK A01 T02000122  RH  061%=      5-min Rain = 0
KPD1 260301Z 10006KT 20/12 A3009 RMK A01 T02000123  RH  061%=      5-min Rain = 0
KPD1 260302Z 13003KT 20/12 A3008 RMK A01 T02000122  RH  061%=      5-min Rain = 0
KPD1 260303Z 14002KT 20/12 A3008 RMK A01 T02000122  RH  061%=      5-min Rain = 0
KPD1 260304Z 10007KT 20/12 A3008 RMK A01 T02000121  RH  060%=      5-min Rain = 0
KPD1 260305Z 13006KT 20/12 A3008 RMK A01 T02000120  RH  060%=      5-min Rain = 0
KPD1 260306Z 14005KT 20/12 A3008 RMK A01 T02010121  RH  060%=      5-min Rain = 0
KPD1 260307Z 13007KT 20/12 A3008 RMK A01 T02010121  RH  060%=      5-min Rain = 0
KPD1 260308Z 14007KT 20/12 A3008 RMK A01 T02010122  RH  060%=      5-min Rain = 0
KPD1 260309Z 14008KT 20/12 A3009 RMK A01 T02010122  RH  060%=      5-min Rain = 0
KPD1 260310Z 15008KT 20/12 A3009 RMK A01 T02010122  RH  060%=      5-min Rain = 0
KPD1 260311Z 14008KT 20/12 A3008 RMK A01 T02020124  RH  061%=      5-min Rain = 0
KPD1 260312Z 14006KT 20/12 A3008 RMK A01 T02010123  RH  061%=      5-min Rain = 0
KPD1 260313Z 14006KT 20/12 A3008 RMK A01 T02000124  RH  061%=      5-min Rain = 0
KPD1 260314Z 14005KT 20/12 A3008 RMK A01 T02000124  RH  061%=      5-min Rain = 0
KPD1 260315Z 15006KT 20/12 A3008 RMK A01 T02000124  RH  062%=      5-min Rain = 0
KPD1 260316Z 15006KT 20/12 A3009 RMK A01 T01990124  RH  062%=      5-min Rain = 0
KPD1 260317Z 14006KT 20/12 A3009 RMK A01 T01990124  RH  062%=      5-min Rain = 0
KPD1 260318Z 16005KT 20/12 A3009 RMK A01 T01990124  RH  062%=      5-min Rain = 0
KPD1 260319Z 17006KT 20/12 A3009 RMK A01 T01980124  RH  062%=      5-min Rain = 0
KPD1 260320Z 18005KT 20/12 A3009 RMK A01 T01980124  RH  062%=      5-min Rain = 0
KPD1 260321Z 18003KT 20/12 A3009 RMK A01 T01980124  RH  062%=      5-min Rain = 0
KPD1 260322Z 19004KT 20/13 A3009 RMK A01 T01980125  RH  063%=      5-min Rain = 0
KPD1 260323Z 18004KT 20/13 A3009 RMK A01 T01970125  RH  063%=      5-min Rain = 0
KPD1 260324Z 18005KT 20/13 A3009 RMK A01 T01970125  RH  063%=      5-min Rain = 0
KPD1 260325Z 17004KT 20/13 A3009 RMK A01 T01970125  RH  063%=      5-min Rain = 0
KPD1 260326Z 17005KT 20/13 A3009 RMK A01 T01960125  RH  063%=      5-min Rain = 0
KPD1 260327Z 17006KT 20/13 A3009 RMK A01 T01960125  RH  064%=      5-min Rain = 0
KPD1 260328Z 17005KT 20/13 A3009 RMK A01 T01960125  RH  064%=      5-min Rain = 0
KPD1 260329Z 17007KT 20/13 A3009 RMK A01 T01960125  RH  064%=      5-min Rain = 0
KPD1 260330Z 16007KT 20/12 A3009 RMK A01 T01950124  RH  064%=      5-min Rain = 0
KPD1 260331Z 16006KT 20/12 A3009 RMK A01 T01950124  RH  064%=      5-min Rain = 0
KPD1 260332Z 17006KT 20/12 A3009 RMK A01 T01950124  RH  063%=      5-min Rain = 0
KPD1 260333Z 16006KT 20/12 A3009 RMK A01 T01950124  RH  063%=      5-min Rain = 0
KPD1 260334Z 16006KT 20/12 A3009 RMK A01 T01950124  RH  063%=      5-min Rain = 0
KPD1 260335Z 15008KT 20/12 A3009 RMK A01 T01950124  RH  063%=      5-min Rain = 0
KPD1 260336Z 15006KT 20/12 A3009 RMK A01 T01950123  RH  063%=      5-min Rain = 0
KPD1 260337Z 15005KT 20/12 A3009 RMK A01 T01960123  RH  063%=      5-min Rain = 0
KPD1 260338Z 15005KT 20/12 A3009 RMK A01 T01950123  RH  063%=      5-min Rain = 0
KPD1 260339Z 16006KT 20/12 A3009 RMK A01 T01960123  RH  063%=      5-min Rain = 0
KPD1 260340Z 16005KT 20/12 A3009 RMK A01 T01960123  RH  063%=      5-min Rain = 0
KPD1 260341Z 15006KT 20/12 A3009 RMK A01 T01960123  RH  063%=      5-min Rain = 0
KPD1 260342Z 16006KT 20/12 A3009 RMK A01 T01960123  RH  063%=      5-min Rain = 0
KPD1 260343Z 16007KT 20/12 A3009 RMK A01 T01960123  RH  063%=      5-min Rain = 0
KPD1 260344Z 16007KT 20/12 A301 RMK A01 T01960123  RH  063%=      5-min Rain = 0
KPD1 260345Z 16006KT 20/12 A301 RMK A01 T01950123  RH  063%=      5-min Rain = 0
KPD1 260346Z 15005KT 20/12 A301 RMK A01 T01960123  RH  063%=      5-min Rain = 0
KPD1 260347Z 16006KT 20/12 A301 RMK A01 T01960122  RH  063%=      5-min Rain = 0
KPD1 260348Z 16008KT 20/12 A301 RMK A01 T01950122  RH  062%=      5-min Rain = 0
KPD1 260349Z 17005KT 20/12 A301 RMK A01 T01960122  RH  062%=      5-min Rain = 0
KPD1 260350Z 16006KT 20/12 A301 RMK A01 T01960122  RH  062%=      5-min Rain = 0
KPD1 260351Z 16005KT 20/12 A301 RMK A01 T01960122  RH  062%=      5-min Rain = 0
KPD1 260352Z 16006KT 20/12 A301 RMK A01 T01960122  RH  062%=      5-min Rain = 0
KPD1 260353Z 15006KT 20/12 A301 RMK A01 T01960121  RH  062%=      5-min Rain = 0
KPD1 260354Z 16005KT 20/12 A301 RMK A01 T01970120  RH  061%=      5-min Rain = 0
KPD1 260355Z 15004G12KT 20/12 A301 RMK A01 T01970120  RH  061%=      5-min Rain = 0
KPD1 260356Z 14011KT 20/12 A301 RMK A01 T01980119  RH  060%=      5-min Rain = 0
KPD1 260357Z 13008KT 20/12 A301 RMK A01 T01990117  RH  059%=      5-min Rain = 0
KPD1 260358Z 15005KT 20/12 A301 RMK A01 T02010117  RH  058%=      5-min Rain = 0
KPD1 260359Z 15005G10KT 20/12 A301 RMK A01 T02020117  RH  058%=      5-min Rain = 0
KPD1 260400Z 14007G12KT 20/12 A301 RMK A01 T02020117  RH  058%=      5-min Rain = 0
KPD1 260401Z 13006KT 20/12 A3011 RMK A01 T02020117  RH  058%=      5-min Rain = 0
KPD1 260402Z 13004KT 20/12 A3011 RMK A01 T02030117  RH  058%=      5-min Rain = 0
KPD1 260403Z 13008KT 20/12 A3011 RMK A01 T02030118  RH  058%=      5-min Rain = 0
KPD1 260404Z 13008KT 20/12 A3011 RMK A01 T02030117  RH  058%=      5-min Rain = 0
KPD1 260405Z 14006KT 20/12 A3011 RMK A01 T02030117  RH  058%=      5-min Rain = 0
KPD1 260406Z 13006KT 20/12 A3011 RMK A01 T02030117  RH  058%=      5-min Rain = 0
KPD1 260407Z 13010KT 20/12 A3011 RMK A01 T02030117  RH  058%=      5-min Rain = 0
KPD1 260408Z 13010KT 20/12 A3011 RMK A01 T02030115  RH  057%=      5-min Rain = 0
KPD1 260409Z 14009KT 21/12 A3011 RMK A01 T02050115  RH  056%=      5-min Rain = 0
KPD1 260410Z 14009KT 21/12 A3011 RMK A01 T02050115  RH  056%=      5-min Rain = 0
KPD1 260411Z 14009KT 21/11 A301 RMK A01 T02050114  RH  056%=      5-min Rain = 0
KPD1 260412Z 13010KT 21/11 A3011 RMK A01 T02060114  RH  056%=      5-min Rain = 0
KPD1 260413Z 14007KT 21/11 A3011 RMK A01 T02060113  RH  055%=      5-min Rain = 0
KPD1 260414Z 15008KT 21/11 A3011 RMK A01 T02070114  RH  055%=      5-min Rain = 0
KPD1 260415Z 15009KT 21/12 A3011 RMK A01 T02070115  RH  055%=      5-min Rain = 0
KPD1 260416Z 15007KT 21/11 A301 RMK A01 T02070114  RH  055%=      5-min Rain = 0
KPD1 260417Z 14006KT 21/11 A301 RMK A01 T02070114  RH  055%=      5-min Rain = 0
KPD1 260418Z 12008G13KT 21/12 A301 RMK A01 T02070115  RH  055%=      5-min Rain = 0
KPD1 260419Z 14009KT 21/11 A301 RMK A01 T02060112  RH  055%=      5-min Rain = 0
KPD1 260420Z 14008G13KT 21/11 A301 RMK A01 T02070112  RH  055%=      5-min Rain = 0
KPD1 260421Z 14005KT 21/11 A3011 RMK A01 T02070111  RH  054%=      5-min Rain = 0
KPD1 260422Z 15007KT 21/11 A301 RMK A01 T02070112  RH  054%=      5-min Rain = 0
KPD1 260423Z 14008KT 21/11 A3011 RMK A01 T02070113  RH  055%=      5-min Rain = 0
KPD1 260424Z 15009KT 21/11 A3011 RMK A01 T02070111  RH  054%=      5-min Rain = 0
KPD1 260425Z 16007KT 21/11 A3011 RMK A01 T02070111  RH  054%=      5-min Rain = 0
KPD1 260426Z 15006KT 21/11 A3011 RMK A01 T02070113  RH  055%=      5-min Rain = 0
KPD1 260427Z 15008KT 21/11 A3011 RMK A01 T02060114  RH  055%=      5-min Rain = 0
KPD1 260428Z 13007G13KT 21/11 A3011 RMK A01 T02060114  RH  056%=      5-min Rain = 0
KPD1 260429Z 13010KT 21/11 A3011 RMK A01 T02050111  RH  055%=      5-min Rain = 0
KPD1 260430Z 14003KT 21/11 A3011 RMK A01 T02070109  RH  053%=      5-min Rain = 0
KPD1 260431Z 14005KT 21/11 A3011 RMK A01 T02070110  RH  054%=      5-min Rain = 0
KPD1 260432Z 14006KT 21/11 A3011 RMK A01 T02070111  RH  054%=      5-min Rain = 0
KPD1 260433Z 15007KT 21/11 A3011 RMK A01 T02070111  RH  054%=      5-min Rain = 0
KPD1 260434Z 16008KT 21/11 A3011 RMK A01 T02070111  RH  054%=      5-min Rain = 0
KPD1 260435Z 16007KT 21/11 A3011 RMK A01 T02070113  RH  055%=      5-min Rain = 0
KPD1 260436Z 16007KT 21/11 A3011 RMK A01 T02060114  RH  056%=      5-min Rain = 0
KPD1 260437Z 14008KT 21/11 A3011 RMK A01 T02050112  RH  055%=      5-min Rain = 0
KPD1 260438Z 14008KT 21/11 A3011 RMK A01 T02060111  RH  054%=      5-min Rain = 0
KPD1 260439Z 15009KT 21/11 A3011 RMK A01 T02060112  RH  055%=      5-min Rain = 0
KPD1 260440Z 15008KT 21/11 A3011 RMK A01 T02060112  RH  054%=      5-min Rain = 0
KPD1 260441Z 14009G14KT 21/11 A3011 RMK A01 T02060111  RH  054%=      5-min Rain = 0
KPD1 260442Z 13010KT 21/11 A3011 RMK A01 T02070108  RH  053%=      5-min Rain = 0
KPD1 260443Z 14011KT 21/11 A3011 RMK A01 T02080107  RH  052%=      5-min Rain = 0
KPD1 260444Z 14011G17KT 21/11 A3011 RMK A01 T02090106  RH  052%=      5-min Rain = 0
KPD1 260445Z 14013KT 21/10 A3011 RMK A01 T02110104  RH  050%=      5-min Rain = 0
KPD1 260446Z 13009KT 21/10 A301 RMK A01 T02130103  RH  049%=      5-min Rain = 0
KPD1 260447Z 13009KT 21/10 A301 RMK A01 T02140103  RH  049%=      5-min Rain = 0
KPD1 260448Z 14010KT 22/10 A301 RMK A01 T02150103  RH  049%=      5-min Rain = 0
KPD1 260449Z 14010KT 22/10 A301 RMK A01 T02150103  RH  049%=      5-min Rain = 0
KPD1 260450Z 14009G14KT 22/10 A301 RMK A01 T02160102  RH  048%=      5-min Rain = 0
KPD1 260451Z 14010G17KT 22/10 A301 RMK A01 T02160101  RH  048%=      5-min Rain = 0
KPD1 260452Z 14009KT 22/10 A301 RMK A01 T02170100  RH  047%=      5-min Rain = 0
KPD1 260453Z 15009KT 22/10 A301 RMK A01 T02170100  RH  047%=      5-min Rain = 0
KPD1 260454Z 16009KT 22/10 A301 RMK A01 T02170101  RH  047%=      5-min Rain = 0
KPD1 260455Z 15007KT 22/10 A301 RMK A01 T02170102  RH  048%=      5-min Rain = 0
KPD1 260456Z 15007KT 22/10 A301 RMK A01 T02160103  RH  049%=      5-min Rain = 0
KPD1 260457Z 15006KT 22/10 A301 RMK A01 T02150104  RH  049%=      5-min Rain = 0
KPD1 260458Z 15009KT 21/10 A301 RMK A01 T02130103  RH  049%=      5-min Rain = 0
KPD1 260459Z 15008KT 21/10 A301 RMK A01 T02130103  RH  049%=      5-min Rain = 0

Page generated in 0.0773 seconds.